<?xml version="1.0" encoding="UTF-8" standalone="no" ?>
<gpx xmlns="http://www.topografix.com/GPX/1/1" xmlns:xsi="http://www.w3.org/2001/XMLSchema-instance" xsi:schemaLocation="http://www.topografix.com/GPX/1/1 http://www.topografix.com/GPX/1/1/gpx.xsd" version="1.1" creator="VisuGPX - https://www.visugpx.com">
  <metadata>
    <name>Yerres - entre bois et parcs (91)</name>
    <desc><![CDATA[Randonnée de 18 km en boucle à partir de la gare de la gare du RER D de Montgeron-Crosne (zone 4) ]]></desc>
  </metadata>
  <trk>
    <name><![CDATA[Yerres - entre bois et parcs]]></name>
    <trkseg>
      <trkpt lat="48.70836" lon="2.4619">
        <ele>34.74</ele>
        <time>2016-07-03T07:26:49Z</time>
      </trkpt>
      <trkpt lat="48.70841" lon="2.46188">
        <ele>34.74</ele>
        <time>2016-07-03T07:26:50Z</time>
      </trkpt>
      <trkpt lat="48.70841" lon="2.46194">
        <ele>33.78</ele>
        <time>2016-07-03T07:27:02Z</time>
      </trkpt>
      <trkpt lat="48.70839" lon="2.46209">
        <ele>33.78</ele>
        <time>2016-07-03T07:27:17Z</time>
      </trkpt>
      <trkpt lat="48.70838" lon="2.46216">
        <ele>32.34</ele>
        <time>2016-07-03T07:27:29Z</time>
      </trkpt>
      <trkpt lat="48.70844" lon="2.46255">
        <ele>29.46</ele>
        <time>2016-07-03T07:28:16Z</time>
      </trkpt>
      <trkpt lat="48.70841" lon="2.46264">
        <ele>29.46</ele>
        <time>2016-07-03T07:28:34Z</time>
      </trkpt>
      <trkpt lat="48.70842" lon="2.46275">
        <ele>28.98</ele>
        <time>2016-07-03T07:28:48Z</time>
      </trkpt>
      <trkpt lat="48.70843" lon="2.46275">
        <ele>29.46</ele>
        <time>2016-07-03T07:29:02Z</time>
      </trkpt>
      <trkpt lat="48.70841" lon="2.46279">
        <ele>29.46</ele>
        <time>2016-07-03T07:29:18Z</time>
      </trkpt>
      <trkpt lat="48.70838" lon="2.46288">
        <ele>28.98</ele>
        <time>2016-07-03T07:29:25Z</time>
      </trkpt>
      <trkpt lat="48.70835" lon="2.46305">
        <ele>28.02</ele>
        <time>2016-07-03T07:29:36Z</time>
      </trkpt>
      <trkpt lat="48.70825" lon="2.46333">
        <ele>28.98</ele>
        <time>2016-07-03T07:29:53Z</time>
      </trkpt>
      <trkpt lat="48.70818" lon="2.4634">
        <ele>28.98</ele>
        <time>2016-07-03T07:29:57Z</time>
      </trkpt>
      <trkpt lat="48.70817" lon="2.46352">
        <ele>29.94</ele>
        <time>2016-07-03T07:34:44Z</time>
      </trkpt>
      <trkpt lat="48.70836" lon="2.46366">
        <ele>28.98</ele>
        <time>2016-07-03T07:35:02Z</time>
      </trkpt>
      <trkpt lat="48.70856" lon="2.46379">
        <ele>28.5</ele>
        <time>2016-07-03T07:35:20Z</time>
      </trkpt>
      <trkpt lat="48.7088" lon="2.46392">
        <ele>28.02</ele>
        <time>2016-07-03T07:35:38Z</time>
      </trkpt>
      <trkpt lat="48.70888" lon="2.46394">
        <ele>27.53</ele>
        <time>2016-07-03T07:35:45Z</time>
      </trkpt>
      <trkpt lat="48.70907" lon="2.46394">
        <ele>27.53</ele>
        <time>2016-07-03T07:35:58Z</time>
      </trkpt>
      <trkpt lat="48.70921" lon="2.46405">
        <ele>27.05</ele>
        <time>2016-07-03T07:36:12Z</time>
      </trkpt>
      <trkpt lat="48.70922" lon="2.46408">
        <ele>27.53</ele>
        <time>2016-07-03T07:36:14Z</time>
      </trkpt>
      <trkpt lat="48.70938" lon="2.4642">
        <ele>28.02</ele>
        <time>2016-07-03T07:36:29Z</time>
      </trkpt>
      <trkpt lat="48.70947" lon="2.46416">
        <ele>28.02</ele>
        <time>2016-07-03T07:36:39Z</time>
      </trkpt>
      <trkpt lat="48.70954" lon="2.46415">
        <ele>27.53</ele>
        <time>2016-07-03T07:36:46Z</time>
      </trkpt>
      <trkpt lat="48.70957" lon="2.46431">
        <ele>28.02</ele>
        <time>2016-07-03T07:36:58Z</time>
      </trkpt>
      <trkpt lat="48.70972" lon="2.46439">
        <ele>28.02</ele>
        <time>2016-07-03T07:37:14Z</time>
      </trkpt>
      <trkpt lat="48.70987" lon="2.46444">
        <ele>28.02</ele>
        <time>2016-07-03T07:37:33Z</time>
      </trkpt>
      <trkpt lat="48.71013" lon="2.46448">
        <ele>28.02</ele>
        <time>2016-07-03T07:37:51Z</time>
      </trkpt>
      <trkpt lat="48.71033" lon="2.46449">
        <ele>28.02</ele>
        <time>2016-07-03T07:38:09Z</time>
      </trkpt>
      <trkpt lat="48.7105" lon="2.46451">
        <ele>27.53</ele>
        <time>2016-07-03T07:38:26Z</time>
      </trkpt>
      <trkpt lat="48.71063" lon="2.46446">
        <ele>27.53</ele>
        <time>2016-07-03T07:38:42Z</time>
      </trkpt>
      <trkpt lat="48.71072" lon="2.46434">
        <ele>27.05</ele>
        <time>2016-07-03T07:38:57Z</time>
      </trkpt>
      <trkpt lat="48.7107" lon="2.46402">
        <ele>26.09</ele>
        <time>2016-07-03T07:39:15Z</time>
      </trkpt>
      <trkpt lat="48.7107" lon="2.46396">
        <ele>25.61</ele>
        <time>2016-07-03T07:39:19Z</time>
      </trkpt>
      <trkpt lat="48.7107" lon="2.46359">
        <ele>26.09</ele>
        <time>2016-07-03T07:39:39Z</time>
      </trkpt>
      <trkpt lat="48.7107" lon="2.4633">
        <ele>25.61</ele>
        <time>2016-07-03T07:39:54Z</time>
      </trkpt>
      <trkpt lat="48.71073" lon="2.46325">
        <ele>25.61</ele>
        <time>2016-07-03T07:40:07Z</time>
      </trkpt>
      <trkpt lat="48.71072" lon="2.46321">
        <ele>25.61</ele>
        <time>2016-07-03T07:40:31Z</time>
      </trkpt>
      <trkpt lat="48.71068" lon="2.46309">
        <ele>25.61</ele>
        <time>2016-07-03T07:40:44Z</time>
      </trkpt>
      <trkpt lat="48.71067" lon="2.46303">
        <ele>25.61</ele>
        <time>2016-07-03T07:40:50Z</time>
      </trkpt>
      <trkpt lat="48.71076" lon="2.46295">
        <ele>24.65</ele>
        <time>2016-07-03T07:41:05Z</time>
      </trkpt>
      <trkpt lat="48.71072" lon="2.46284">
        <ele>25.13</ele>
        <time>2016-07-03T07:41:15Z</time>
      </trkpt>
      <trkpt lat="48.71075" lon="2.46262">
        <ele>25.61</ele>
        <time>2016-07-03T07:41:27Z</time>
      </trkpt>
      <trkpt lat="48.7108" lon="2.46243">
        <ele>25.61</ele>
        <time>2016-07-03T07:41:40Z</time>
      </trkpt>
      <trkpt lat="48.71085" lon="2.46215">
        <ele>25.13</ele>
        <time>2016-07-03T07:41:56Z</time>
      </trkpt>
      <trkpt lat="48.71088" lon="2.46196">
        <ele>25.61</ele>
        <time>2016-07-03T07:42:08Z</time>
      </trkpt>
      <trkpt lat="48.71091" lon="2.46176">
        <ele>25.13</ele>
        <time>2016-07-03T07:42:20Z</time>
      </trkpt>
      <trkpt lat="48.71099" lon="2.46155">
        <ele>25.13</ele>
        <time>2016-07-03T07:42:34Z</time>
      </trkpt>
      <trkpt lat="48.71101" lon="2.46149">
        <ele>25.13</ele>
        <time>2016-07-03T07:42:37Z</time>
      </trkpt>
      <trkpt lat="48.71102" lon="2.46142">
        <ele>25.13</ele>
        <time>2016-07-03T07:42:42Z</time>
      </trkpt>
      <trkpt lat="48.71104" lon="2.46128">
        <ele>25.61</ele>
        <time>2016-07-03T07:42:50Z</time>
      </trkpt>
      <trkpt lat="48.71111" lon="2.46096">
        <ele>25.61</ele>
        <time>2016-07-03T07:43:07Z</time>
      </trkpt>
      <trkpt lat="48.71113" lon="2.46088">
        <ele>25.61</ele>
        <time>2016-07-03T07:43:12Z</time>
      </trkpt>
      <trkpt lat="48.71113" lon="2.4608">
        <ele>25.61</ele>
        <time>2016-07-03T07:43:17Z</time>
      </trkpt>
      <trkpt lat="48.71121" lon="2.46052">
        <ele>25.61</ele>
        <time>2016-07-03T07:43:34Z</time>
      </trkpt>
      <trkpt lat="48.71128" lon="2.46025">
        <ele>25.61</ele>
        <time>2016-07-03T07:43:52Z</time>
      </trkpt>
      <trkpt lat="48.71133" lon="2.46008">
        <ele>25.61</ele>
        <time>2016-07-03T07:44:05Z</time>
      </trkpt>
      <trkpt lat="48.71136" lon="2.45993">
        <ele>25.61</ele>
        <time>2016-07-03T07:44:18Z</time>
      </trkpt>
      <trkpt lat="48.71139" lon="2.45975">
        <ele>24.65</ele>
        <time>2016-07-03T07:44:33Z</time>
      </trkpt>
      <trkpt lat="48.7114" lon="2.45966">
        <ele>24.65</ele>
        <time>2016-07-03T07:44:49Z</time>
      </trkpt>
      <trkpt lat="48.71144" lon="2.45934">
        <ele>24.65</ele>
        <time>2016-07-03T07:45:05Z</time>
      </trkpt>
      <trkpt lat="48.7115" lon="2.45915">
        <ele>24.65</ele>
        <time>2016-07-03T07:45:18Z</time>
      </trkpt>
      <trkpt lat="48.71157" lon="2.45892">
        <ele>25.13</ele>
        <time>2016-07-03T07:45:32Z</time>
      </trkpt>
      <trkpt lat="48.71162" lon="2.45875">
        <ele>25.13</ele>
        <time>2016-07-03T07:45:45Z</time>
      </trkpt>
      <trkpt lat="48.71159" lon="2.45848">
        <ele>25.13</ele>
        <time>2016-07-03T07:46:01Z</time>
      </trkpt>
      <trkpt lat="48.71145" lon="2.45832">
        <ele>25.13</ele>
        <time>2016-07-03T07:46:17Z</time>
      </trkpt>
      <trkpt lat="48.71132" lon="2.45821">
        <ele>25.13</ele>
        <time>2016-07-03T07:46:31Z</time>
      </trkpt>
      <trkpt lat="48.7112" lon="2.45805">
        <ele>25.61</ele>
        <time>2016-07-03T07:46:45Z</time>
      </trkpt>
      <trkpt lat="48.71116" lon="2.45799">
        <ele>25.61</ele>
        <time>2016-07-03T07:46:51Z</time>
      </trkpt>
      <trkpt lat="48.71109" lon="2.45793">
        <ele>25.61</ele>
        <time>2016-07-03T07:46:58Z</time>
      </trkpt>
      <trkpt lat="48.71103" lon="2.45779">
        <ele>25.61</ele>
        <time>2016-07-03T07:47:08Z</time>
      </trkpt>
      <trkpt lat="48.71111" lon="2.45761">
        <ele>26.09</ele>
        <time>2016-07-03T07:47:23Z</time>
      </trkpt>
      <trkpt lat="48.71126" lon="2.45754">
        <ele>26.09</ele>
        <time>2016-07-03T07:47:38Z</time>
      </trkpt>
      <trkpt lat="48.71146" lon="2.45757">
        <ele>25.61</ele>
        <time>2016-07-03T07:47:57Z</time>
      </trkpt>
      <trkpt lat="48.71166" lon="2.45757">
        <ele>26.09</ele>
        <time>2016-07-03T07:48:15Z</time>
      </trkpt>
      <trkpt lat="48.71185" lon="2.45763">
        <ele>26.57</ele>
        <time>2016-07-03T07:48:33Z</time>
      </trkpt>
      <trkpt lat="48.71206" lon="2.45765">
        <ele>26.09</ele>
        <time>2016-07-03T07:48:52Z</time>
      </trkpt>
      <trkpt lat="48.71227" lon="2.45761">
        <ele>26.57</ele>
        <time>2016-07-03T07:49:10Z</time>
      </trkpt>
      <trkpt lat="48.71249" lon="2.45752">
        <ele>26.09</ele>
        <time>2016-07-03T07:49:32Z</time>
      </trkpt>
      <trkpt lat="48.71268" lon="2.4574">
        <ele>25.13</ele>
        <time>2016-07-03T07:49:49Z</time>
      </trkpt>
      <trkpt lat="48.71281" lon="2.45713">
        <ele>25.13</ele>
        <time>2016-07-03T07:50:07Z</time>
      </trkpt>
      <trkpt lat="48.71288" lon="2.45696">
        <ele>25.61</ele>
        <time>2016-07-03T07:50:21Z</time>
      </trkpt>
      <trkpt lat="48.71292" lon="2.45673">
        <ele>26.09</ele>
        <time>2016-07-03T07:50:35Z</time>
      </trkpt>
      <trkpt lat="48.71304" lon="2.45653">
        <ele>26.09</ele>
        <time>2016-07-03T07:50:53Z</time>
      </trkpt>
      <trkpt lat="48.7132" lon="2.45643">
        <ele>26.09</ele>
        <time>2016-07-03T07:51:09Z</time>
      </trkpt>
      <trkpt lat="48.7133" lon="2.45659">
        <ele>26.09</ele>
        <time>2016-07-03T07:51:24Z</time>
      </trkpt>
      <trkpt lat="48.71335" lon="2.45678">
        <ele>26.57</ele>
        <time>2016-07-03T07:51:39Z</time>
      </trkpt>
      <trkpt lat="48.71351" lon="2.45696">
        <ele>26.09</ele>
        <time>2016-07-03T07:51:56Z</time>
      </trkpt>
      <trkpt lat="48.71372" lon="2.45711">
        <ele>25.61</ele>
        <time>2016-07-03T07:52:14Z</time>
      </trkpt>
      <trkpt lat="48.71391" lon="2.45725">
        <ele>25.61</ele>
        <time>2016-07-03T07:52:32Z</time>
      </trkpt>
      <trkpt lat="48.71405" lon="2.45737">
        <ele>25.61</ele>
        <time>2016-07-03T07:52:48Z</time>
      </trkpt>
      <trkpt lat="48.71425" lon="2.45753">
        <ele>25.61</ele>
        <time>2016-07-03T07:53:07Z</time>
      </trkpt>
      <trkpt lat="48.71444" lon="2.45767">
        <ele>25.61</ele>
        <time>2016-07-03T07:53:24Z</time>
      </trkpt>
      <trkpt lat="48.7145" lon="2.45772">
        <ele>25.61</ele>
        <time>2016-07-03T07:53:29Z</time>
      </trkpt>
      <trkpt lat="48.71467" lon="2.45777">
        <ele>25.61</ele>
        <time>2016-07-03T07:53:45Z</time>
      </trkpt>
      <trkpt lat="48.71483" lon="2.45753">
        <ele>25.61</ele>
        <time>2016-07-03T07:54:03Z</time>
      </trkpt>
      <trkpt lat="48.71489" lon="2.45755">
        <ele>25.61</ele>
        <time>2016-07-03T07:54:10Z</time>
      </trkpt>
      <trkpt lat="48.71492" lon="2.45762">
        <ele>26.57</ele>
        <time>2016-07-03T07:54:23Z</time>
      </trkpt>
      <trkpt lat="48.71495" lon="2.45765">
        <ele>27.05</ele>
        <time>2016-07-03T07:54:36Z</time>
      </trkpt>
      <trkpt lat="48.71496" lon="2.45768">
        <ele>26.57</ele>
        <time>2016-07-03T07:54:42Z</time>
      </trkpt>
      <trkpt lat="48.71497" lon="2.4578">
        <ele>26.57</ele>
        <time>2016-07-03T07:54:58Z</time>
      </trkpt>
      <trkpt lat="48.71503" lon="2.45783">
        <ele>26.57</ele>
        <time>2016-07-03T07:55:19Z</time>
      </trkpt>
      <trkpt lat="48.71509" lon="2.45786">
        <ele>26.57</ele>
        <time>2016-07-03T07:55:37Z</time>
      </trkpt>
      <trkpt lat="48.71513" lon="2.45791">
        <ele>26.57</ele>
        <time>2016-07-03T07:55:41Z</time>
      </trkpt>
      <trkpt lat="48.71523" lon="2.45803">
        <ele>27.05</ele>
        <time>2016-07-03T07:55:53Z</time>
      </trkpt>
      <trkpt lat="48.71535" lon="2.4582">
        <ele>27.53</ele>
        <time>2016-07-03T07:56:08Z</time>
      </trkpt>
      <trkpt lat="48.71546" lon="2.45832">
        <ele>27.53</ele>
        <time>2016-07-03T07:56:22Z</time>
      </trkpt>
      <trkpt lat="48.71556" lon="2.45844">
        <ele>28.02</ele>
        <time>2016-07-03T07:56:33Z</time>
      </trkpt>
      <trkpt lat="48.71563" lon="2.4585">
        <ele>28.02</ele>
        <time>2016-07-03T07:56:48Z</time>
      </trkpt>
      <trkpt lat="48.71572" lon="2.45849">
        <ele>28.5</ele>
        <time>2016-07-03T07:57:03Z</time>
      </trkpt>
      <trkpt lat="48.71575" lon="2.45844">
        <ele>28.02</ele>
        <time>2016-07-03T07:57:22Z</time>
      </trkpt>
      <trkpt lat="48.71572" lon="2.45851">
        <ele>28.5</ele>
        <time>2016-07-03T07:57:43Z</time>
      </trkpt>
      <trkpt lat="48.71574" lon="2.45855">
        <ele>28.5</ele>
        <time>2016-07-03T07:58:00Z</time>
      </trkpt>
      <trkpt lat="48.71575" lon="2.45872">
        <ele>28.98</ele>
        <time>2016-07-03T07:58:17Z</time>
      </trkpt>
      <trkpt lat="48.71579" lon="2.45876">
        <ele>28.98</ele>
        <time>2016-07-03T07:58:30Z</time>
      </trkpt>
      <trkpt lat="48.71579" lon="2.45883">
        <ele>28.98</ele>
        <time>2016-07-03T07:58:52Z</time>
      </trkpt>
      <trkpt lat="48.71581" lon="2.45886">
        <ele>28.98</ele>
        <time>2016-07-03T07:58:59Z</time>
      </trkpt>
      <trkpt lat="48.71594" lon="2.45889">
        <ele>28.98</ele>
        <time>2016-07-03T07:59:13Z</time>
      </trkpt>
      <trkpt lat="48.71607" lon="2.45902">
        <ele>28.98</ele>
        <time>2016-07-03T07:59:27Z</time>
      </trkpt>
      <trkpt lat="48.71619" lon="2.45926">
        <ele>29.46</ele>
        <time>2016-07-03T07:59:45Z</time>
      </trkpt>
      <trkpt lat="48.71628" lon="2.45947">
        <ele>29.94</ele>
        <time>2016-07-03T08:00:02Z</time>
      </trkpt>
      <trkpt lat="48.71639" lon="2.45961">
        <ele>29.94</ele>
        <time>2016-07-03T08:00:16Z</time>
      </trkpt>
      <trkpt lat="48.71651" lon="2.45979">
        <ele>29.94</ele>
        <time>2016-07-03T08:00:30Z</time>
      </trkpt>
      <trkpt lat="48.71667" lon="2.45986">
        <ele>29.94</ele>
        <time>2016-07-03T08:00:45Z</time>
      </trkpt>
      <trkpt lat="48.71678" lon="2.45995">
        <ele>30.42</ele>
        <time>2016-07-03T08:00:59Z</time>
      </trkpt>
      <trkpt lat="48.71691" lon="2.46011">
        <ele>30.42</ele>
        <time>2016-07-03T08:01:13Z</time>
      </trkpt>
      <trkpt lat="48.71704" lon="2.46026">
        <ele>30.9</ele>
        <time>2016-07-03T08:01:28Z</time>
      </trkpt>
      <trkpt lat="48.71717" lon="2.46044">
        <ele>31.38</ele>
        <time>2016-07-03T08:01:45Z</time>
      </trkpt>
      <trkpt lat="48.71729" lon="2.46062">
        <ele>32.34</ele>
        <time>2016-07-03T08:02:01Z</time>
      </trkpt>
      <trkpt lat="48.71739" lon="2.4608">
        <ele>33.3</ele>
        <time>2016-07-03T08:02:17Z</time>
      </trkpt>
      <trkpt lat="48.7174" lon="2.46094">
        <ele>33.78</ele>
        <time>2016-07-03T08:02:31Z</time>
      </trkpt>
      <trkpt lat="48.71741" lon="2.46098">
        <ele>33.78</ele>
        <time>2016-07-03T08:02:34Z</time>
      </trkpt>
      <trkpt lat="48.7174" lon="2.46116">
        <ele>34.74</ele>
        <time>2016-07-03T08:02:47Z</time>
      </trkpt>
      <trkpt lat="48.71742" lon="2.46124">
        <ele>35.71</ele>
        <time>2016-07-03T08:02:59Z</time>
      </trkpt>
      <trkpt lat="48.71752" lon="2.46137">
        <ele>37.15</ele>
        <time>2016-07-03T08:03:11Z</time>
      </trkpt>
      <trkpt lat="48.71759" lon="2.46145">
        <ele>38.11</ele>
        <time>2016-07-03T08:03:19Z</time>
      </trkpt>
      <trkpt lat="48.71769" lon="2.46159">
        <ele>39.55</ele>
        <time>2016-07-03T08:03:32Z</time>
      </trkpt>
      <trkpt lat="48.71775" lon="2.46169">
        <ele>40.03</ele>
        <time>2016-07-03T08:03:41Z</time>
      </trkpt>
      <trkpt lat="48.71785" lon="2.46184">
        <ele>41.47</ele>
        <time>2016-07-03T08:03:54Z</time>
      </trkpt>
      <trkpt lat="48.71789" lon="2.46189">
        <ele>42.44</ele>
        <time>2016-07-03T08:03:59Z</time>
      </trkpt>
      <trkpt lat="48.71801" lon="2.4618">
        <ele>42.92</ele>
        <time>2016-07-03T08:04:13Z</time>
      </trkpt>
      <trkpt lat="48.71807" lon="2.46179">
        <ele>42.92</ele>
        <time>2016-07-03T08:04:26Z</time>
      </trkpt>
      <trkpt lat="48.7181" lon="2.4618">
        <ele>42.92</ele>
        <time>2016-07-03T08:04:36Z</time>
      </trkpt>
      <trkpt lat="48.7182" lon="2.46187">
        <ele>43.88</ele>
        <time>2016-07-03T08:04:50Z</time>
      </trkpt>
      <trkpt lat="48.71816" lon="2.46185">
        <ele>43.88</ele>
        <time>2016-07-03T08:05:09Z</time>
      </trkpt>
      <trkpt lat="48.71816" lon="2.46188">
        <ele>43.88</ele>
        <time>2016-07-03T08:05:29Z</time>
      </trkpt>
      <trkpt lat="48.71815" lon="2.46188">
        <ele>44.36</ele>
        <time>2016-07-03T08:05:51Z</time>
      </trkpt>
      <trkpt lat="48.71817" lon="2.46201">
        <ele>44.36</ele>
        <time>2016-07-03T08:06:16Z</time>
      </trkpt>
      <trkpt lat="48.71832" lon="2.46208">
        <ele>45.8</ele>
        <time>2016-07-03T08:06:29Z</time>
      </trkpt>
      <trkpt lat="48.71843" lon="2.46216">
        <ele>47.24</ele>
        <time>2016-07-03T08:06:42Z</time>
      </trkpt>
      <trkpt lat="48.71848" lon="2.46223">
        <ele>47.72</ele>
        <time>2016-07-03T08:06:49Z</time>
      </trkpt>
      <trkpt lat="48.71859" lon="2.46236">
        <ele>48.68</ele>
        <time>2016-07-03T08:07:04Z</time>
      </trkpt>
      <trkpt lat="48.71868" lon="2.46251">
        <ele>49.65</ele>
        <time>2016-07-03T08:07:15Z</time>
      </trkpt>
      <trkpt lat="48.71871" lon="2.46259">
        <ele>50.13</ele>
        <time>2016-07-03T08:07:21Z</time>
      </trkpt>
      <trkpt lat="48.71886" lon="2.46273">
        <ele>52.05</ele>
        <time>2016-07-03T08:07:36Z</time>
      </trkpt>
      <trkpt lat="48.71895" lon="2.46284">
        <ele>53.49</ele>
        <time>2016-07-03T08:07:49Z</time>
      </trkpt>
      <trkpt lat="48.71901" lon="2.4629">
        <ele>53.97</ele>
        <time>2016-07-03T08:08:02Z</time>
      </trkpt>
      <trkpt lat="48.71904" lon="2.46292">
        <ele>54.45</ele>
        <time>2016-07-03T08:08:18Z</time>
      </trkpt>
      <trkpt lat="48.71915" lon="2.46309">
        <ele>55.89</ele>
        <time>2016-07-03T08:08:33Z</time>
      </trkpt>
      <trkpt lat="48.71917" lon="2.46311">
        <ele>56.37</ele>
        <time>2016-07-03T08:08:35Z</time>
      </trkpt>
      <trkpt lat="48.71923" lon="2.46314">
        <ele>56.86</ele>
        <time>2016-07-03T08:08:41Z</time>
      </trkpt>
      <trkpt lat="48.71924" lon="2.46317">
        <ele>56.86</ele>
        <time>2016-07-03T08:08:43Z</time>
      </trkpt>
      <trkpt lat="48.71933" lon="2.4633">
        <ele>58.78</ele>
        <time>2016-07-03T08:08:56Z</time>
      </trkpt>
      <trkpt lat="48.71934" lon="2.4633">
        <ele>58.3</ele>
        <time>2016-07-03T08:08:57Z</time>
      </trkpt>
      <trkpt lat="48.71946" lon="2.46327">
        <ele>58.3</ele>
        <time>2016-07-03T08:09:10Z</time>
      </trkpt>
      <trkpt lat="48.71949" lon="2.46326">
        <ele>58.3</ele>
        <time>2016-07-03T08:09:12Z</time>
      </trkpt>
      <trkpt lat="48.71961" lon="2.46305">
        <ele>57.34</ele>
        <time>2016-07-03T08:09:29Z</time>
      </trkpt>
      <trkpt lat="48.71972" lon="2.46282">
        <ele>57.34</ele>
        <time>2016-07-03T08:09:44Z</time>
      </trkpt>
      <trkpt lat="48.71973" lon="2.46279">
        <ele>57.34</ele>
        <time>2016-07-03T08:09:46Z</time>
      </trkpt>
      <trkpt lat="48.71988" lon="2.46268">
        <ele>57.34</ele>
        <time>2016-07-03T08:10:01Z</time>
      </trkpt>
      <trkpt lat="48.71989" lon="2.46268">
        <ele>57.34</ele>
        <time>2016-07-03T08:10:02Z</time>
      </trkpt>
      <trkpt lat="48.72008" lon="2.46274">
        <ele>57.82</ele>
        <time>2016-07-03T08:10:19Z</time>
      </trkpt>
      <trkpt lat="48.72011" lon="2.46271">
        <ele>57.82</ele>
        <time>2016-07-03T08:10:23Z</time>
      </trkpt>
      <trkpt lat="48.72016" lon="2.46259">
        <ele>57.82</ele>
        <time>2016-07-03T08:10:32Z</time>
      </trkpt>
      <trkpt lat="48.72016" lon="2.46254">
        <ele>57.82</ele>
        <time>2016-07-03T08:10:45Z</time>
      </trkpt>
      <trkpt lat="48.72018" lon="2.4625">
        <ele>57.82</ele>
        <time>2016-07-03T08:10:48Z</time>
      </trkpt>
      <trkpt lat="48.72027" lon="2.46235">
        <ele>57.82</ele>
        <time>2016-07-03T08:10:59Z</time>
      </trkpt>
      <trkpt lat="48.72029" lon="2.46228">
        <ele>57.82</ele>
        <time>2016-07-03T08:11:03Z</time>
      </trkpt>
      <trkpt lat="48.72047" lon="2.46214">
        <ele>58.3</ele>
        <time>2016-07-03T08:11:18Z</time>
      </trkpt>
      <trkpt lat="48.7206" lon="2.46198">
        <ele>58.3</ele>
        <time>2016-07-03T08:11:34Z</time>
      </trkpt>
      <trkpt lat="48.72067" lon="2.46192">
        <ele>58.78</ele>
        <time>2016-07-03T08:11:51Z</time>
      </trkpt>
      <trkpt lat="48.72071" lon="2.46188">
        <ele>58.78</ele>
        <time>2016-07-03T08:12:12Z</time>
      </trkpt>
      <trkpt lat="48.72081" lon="2.46181">
        <ele>58.78</ele>
        <time>2016-07-03T08:12:23Z</time>
      </trkpt>
      <trkpt lat="48.72088" lon="2.4618">
        <ele>58.78</ele>
        <time>2016-07-03T08:12:31Z</time>
      </trkpt>
      <trkpt lat="48.72102" lon="2.46166">
        <ele>58.78</ele>
        <time>2016-07-03T08:12:47Z</time>
      </trkpt>
      <trkpt lat="48.72107" lon="2.46161">
        <ele>58.78</ele>
        <time>2016-07-03T08:12:51Z</time>
      </trkpt>
      <trkpt lat="48.72117" lon="2.46144">
        <ele>59.26</ele>
        <time>2016-07-03T08:13:08Z</time>
      </trkpt>
      <trkpt lat="48.72122" lon="2.46145">
        <ele>59.26</ele>
        <time>2016-07-03T08:13:14Z</time>
      </trkpt>
      <trkpt lat="48.72135" lon="2.46153">
        <ele>61.18</ele>
        <time>2016-07-03T08:13:31Z</time>
      </trkpt>
      <trkpt lat="48.72148" lon="2.46166">
        <ele>63.1</ele>
        <time>2016-07-03T08:13:49Z</time>
      </trkpt>
      <trkpt lat="48.72159" lon="2.46176">
        <ele>64.55</ele>
        <time>2016-07-03T08:14:04Z</time>
      </trkpt>
      <trkpt lat="48.72162" lon="2.46189">
        <ele>65.99</ele>
        <time>2016-07-03T08:14:20Z</time>
      </trkpt>
      <trkpt lat="48.72173" lon="2.46199">
        <ele>67.43</ele>
        <time>2016-07-03T08:14:34Z</time>
      </trkpt>
      <trkpt lat="48.7218" lon="2.46212">
        <ele>68.87</ele>
        <time>2016-07-03T08:14:49Z</time>
      </trkpt>
      <trkpt lat="48.72185" lon="2.46233">
        <ele>70.31</ele>
        <time>2016-07-03T08:15:08Z</time>
      </trkpt>
      <trkpt lat="48.72196" lon="2.4624">
        <ele>70.79</ele>
        <time>2016-07-03T08:15:31Z</time>
      </trkpt>
      <trkpt lat="48.72197" lon="2.46239">
        <ele>71.27</ele>
        <time>2016-07-03T08:15:42Z</time>
      </trkpt>
      <trkpt lat="48.722" lon="2.46239">
        <ele>70.31</ele>
        <time>2016-07-03T08:15:57Z</time>
      </trkpt>
      <trkpt lat="48.722" lon="2.46242">
        <ele>70.31</ele>
        <time>2016-07-03T08:16:18Z</time>
      </trkpt>
      <trkpt lat="48.72195" lon="2.46243">
        <ele>70.31</ele>
        <time>2016-07-03T08:16:33Z</time>
      </trkpt>
      <trkpt lat="48.72195" lon="2.46241">
        <ele>70.31</ele>
        <time>2016-07-03T08:16:46Z</time>
      </trkpt>
      <trkpt lat="48.72197" lon="2.46233">
        <ele>70.79</ele>
        <time>2016-07-03T08:17:10Z</time>
      </trkpt>
      <trkpt lat="48.72191" lon="2.46233">
        <ele>70.31</ele>
        <time>2016-07-03T08:17:27Z</time>
      </trkpt>
      <trkpt lat="48.72193" lon="2.46238">
        <ele>70.79</ele>
        <time>2016-07-03T08:17:54Z</time>
      </trkpt>
      <trkpt lat="48.72187" lon="2.46245">
        <ele>70.79</ele>
        <time>2016-07-03T08:18:21Z</time>
      </trkpt>
      <trkpt lat="48.7219" lon="2.46249">
        <ele>70.79</ele>
        <time>2016-07-03T08:18:37Z</time>
      </trkpt>
      <trkpt lat="48.72186" lon="2.46256">
        <ele>70.79</ele>
        <time>2016-07-03T08:18:55Z</time>
      </trkpt>
      <trkpt lat="48.72186" lon="2.4626">
        <ele>70.79</ele>
        <time>2016-07-03T08:19:09Z</time>
      </trkpt>
      <trkpt lat="48.72177" lon="2.46278">
        <ele>71.76</ele>
        <time>2016-07-03T08:19:26Z</time>
      </trkpt>
      <trkpt lat="48.72171" lon="2.46296">
        <ele>72.72</ele>
        <time>2016-07-03T08:19:42Z</time>
      </trkpt>
      <trkpt lat="48.72167" lon="2.4633">
        <ele>74.16</ele>
        <time>2016-07-03T08:20:02Z</time>
      </trkpt>
      <trkpt lat="48.72159" lon="2.46361">
        <ele>75.12</ele>
        <time>2016-07-03T08:20:21Z</time>
      </trkpt>
      <trkpt lat="48.72162" lon="2.46388">
        <ele>76.56</ele>
        <time>2016-07-03T08:20:42Z</time>
      </trkpt>
      <trkpt lat="48.72159" lon="2.46403">
        <ele>78</ele>
        <time>2016-07-03T08:20:58Z</time>
      </trkpt>
      <trkpt lat="48.72159" lon="2.46405">
        <ele>78.48</ele>
        <time>2016-07-03T08:20:59Z</time>
      </trkpt>
      <trkpt lat="48.72172" lon="2.46408">
        <ele>78</ele>
        <time>2016-07-03T08:21:15Z</time>
      </trkpt>
      <trkpt lat="48.72185" lon="2.46411">
        <ele>78</ele>
        <time>2016-07-03T08:21:28Z</time>
      </trkpt>
      <trkpt lat="48.72199" lon="2.4641">
        <ele>78</ele>
        <time>2016-07-03T08:21:43Z</time>
      </trkpt>
      <trkpt lat="48.72214" lon="2.46415">
        <ele>78.97</ele>
        <time>2016-07-03T08:21:59Z</time>
      </trkpt>
      <trkpt lat="48.72225" lon="2.46411">
        <ele>78.97</ele>
        <time>2016-07-03T08:22:11Z</time>
      </trkpt>
      <trkpt lat="48.72235" lon="2.46408">
        <ele>78.48</ele>
        <time>2016-07-03T08:22:25Z</time>
      </trkpt>
      <trkpt lat="48.72246" lon="2.46405">
        <ele>78.97</ele>
        <time>2016-07-03T08:22:40Z</time>
      </trkpt>
      <trkpt lat="48.72249" lon="2.46404">
        <ele>78.97</ele>
        <time>2016-07-03T08:22:43Z</time>
      </trkpt>
      <trkpt lat="48.72258" lon="2.46404">
        <ele>78.97</ele>
        <time>2016-07-03T08:22:52Z</time>
      </trkpt>
      <trkpt lat="48.72275" lon="2.46399">
        <ele>78.97</ele>
        <time>2016-07-03T08:23:07Z</time>
      </trkpt>
      <trkpt lat="48.72293" lon="2.46389">
        <ele>78.97</ele>
        <time>2016-07-03T08:23:21Z</time>
      </trkpt>
      <trkpt lat="48.72305" lon="2.4637">
        <ele>78.97</ele>
        <time>2016-07-03T08:23:38Z</time>
      </trkpt>
      <trkpt lat="48.72314" lon="2.46367">
        <ele>78.97</ele>
        <time>2016-07-03T08:23:53Z</time>
      </trkpt>
      <trkpt lat="48.72317" lon="2.46376">
        <ele>79.45</ele>
        <time>2016-07-03T08:24:04Z</time>
      </trkpt>
      <trkpt lat="48.72325" lon="2.4638">
        <ele>79.93</ele>
        <time>2016-07-03T08:24:12Z</time>
      </trkpt>
      <trkpt lat="48.72338" lon="2.46378">
        <ele>79.93</ele>
        <time>2016-07-03T08:24:21Z</time>
      </trkpt>
      <trkpt lat="48.72339" lon="2.46373">
        <ele>79.93</ele>
        <time>2016-07-03T08:24:24Z</time>
      </trkpt>
      <trkpt lat="48.72344" lon="2.4636">
        <ele>79.93</ele>
        <time>2016-07-03T08:24:33Z</time>
      </trkpt>
      <trkpt lat="48.72353" lon="2.46336">
        <ele>79.45</ele>
        <time>2016-07-03T08:24:50Z</time>
      </trkpt>
      <trkpt lat="48.72359" lon="2.46325">
        <ele>79.93</ele>
        <time>2016-07-03T08:25:06Z</time>
      </trkpt>
      <trkpt lat="48.72361" lon="2.46327">
        <ele>79.45</ele>
        <time>2016-07-03T08:25:25Z</time>
      </trkpt>
      <trkpt lat="48.7238" lon="2.46327">
        <ele>79.93</ele>
        <time>2016-07-03T08:25:41Z</time>
      </trkpt>
      <trkpt lat="48.72384" lon="2.46335">
        <ele>79.93</ele>
        <time>2016-07-03T08:25:47Z</time>
      </trkpt>
      <trkpt lat="48.72384" lon="2.46341">
        <ele>79.93</ele>
        <time>2016-07-03T08:25:50Z</time>
      </trkpt>
      <trkpt lat="48.72383" lon="2.46361">
        <ele>79.45</ele>
        <time>2016-07-03T08:26:05Z</time>
      </trkpt>
      <trkpt lat="48.72385" lon="2.46384">
        <ele>79.45</ele>
        <time>2016-07-03T08:26:19Z</time>
      </trkpt>
      <trkpt lat="48.72388" lon="2.46404">
        <ele>79.45</ele>
        <time>2016-07-03T08:26:31Z</time>
      </trkpt>
      <trkpt lat="48.72388" lon="2.46428">
        <ele>79.45</ele>
        <time>2016-07-03T08:26:44Z</time>
      </trkpt>
      <trkpt lat="48.72389" lon="2.46451">
        <ele>79.93</ele>
        <time>2016-07-03T08:26:57Z</time>
      </trkpt>
      <trkpt lat="48.72392" lon="2.46471">
        <ele>79.93</ele>
        <time>2016-07-03T08:27:11Z</time>
      </trkpt>
      <trkpt lat="48.72392" lon="2.4649">
        <ele>79.93</ele>
        <time>2016-07-03T08:27:22Z</time>
      </trkpt>
      <trkpt lat="48.72394" lon="2.46519">
        <ele>80.41</ele>
        <time>2016-07-03T08:27:38Z</time>
      </trkpt>
      <trkpt lat="48.72395" lon="2.46539">
        <ele>80.41</ele>
        <time>2016-07-03T08:27:51Z</time>
      </trkpt>
      <trkpt lat="48.72396" lon="2.46548">
        <ele>80.41</ele>
        <time>2016-07-03T08:27:56Z</time>
      </trkpt>
      <trkpt lat="48.72397" lon="2.46573">
        <ele>80.89</ele>
        <time>2016-07-03T08:28:12Z</time>
      </trkpt>
      <trkpt lat="48.724" lon="2.46604">
        <ele>80.89</ele>
        <time>2016-07-03T08:28:29Z</time>
      </trkpt>
      <trkpt lat="48.72401" lon="2.46631">
        <ele>80.41</ele>
        <time>2016-07-03T08:28:45Z</time>
      </trkpt>
      <trkpt lat="48.72403" lon="2.46658">
        <ele>80.41</ele>
        <time>2016-07-03T08:29:01Z</time>
      </trkpt>
      <trkpt lat="48.72404" lon="2.46679">
        <ele>80.41</ele>
        <time>2016-07-03T08:29:12Z</time>
      </trkpt>
      <trkpt lat="48.72405" lon="2.46708">
        <ele>80.41</ele>
        <time>2016-07-03T08:29:29Z</time>
      </trkpt>
      <trkpt lat="48.72406" lon="2.4674">
        <ele>80.41</ele>
        <time>2016-07-03T08:29:47Z</time>
      </trkpt>
      <trkpt lat="48.72409" lon="2.46769">
        <ele>80.89</ele>
        <time>2016-07-03T08:30:04Z</time>
      </trkpt>
      <trkpt lat="48.7241" lon="2.46795">
        <ele>80.89</ele>
        <time>2016-07-03T08:30:18Z</time>
      </trkpt>
      <trkpt lat="48.72413" lon="2.46823">
        <ele>81.37</ele>
        <time>2016-07-03T08:30:33Z</time>
      </trkpt>
      <trkpt lat="48.72414" lon="2.46852">
        <ele>81.37</ele>
        <time>2016-07-03T08:30:49Z</time>
      </trkpt>
      <trkpt lat="48.72415" lon="2.46877">
        <ele>81.37</ele>
        <time>2016-07-03T08:31:05Z</time>
      </trkpt>
      <trkpt lat="48.72418" lon="2.469">
        <ele>81.37</ele>
        <time>2016-07-03T08:31:19Z</time>
      </trkpt>
      <trkpt lat="48.7242" lon="2.46935">
        <ele>81.37</ele>
        <time>2016-07-03T08:31:37Z</time>
      </trkpt>
      <trkpt lat="48.7242" lon="2.46944">
        <ele>81.37</ele>
        <time>2016-07-03T08:31:42Z</time>
      </trkpt>
      <trkpt lat="48.72422" lon="2.46972">
        <ele>81.85</ele>
        <time>2016-07-03T08:31:58Z</time>
      </trkpt>
      <trkpt lat="48.72424" lon="2.46992">
        <ele>81.85</ele>
        <time>2016-07-03T08:32:09Z</time>
      </trkpt>
      <trkpt lat="48.72423" lon="2.4702">
        <ele>81.85</ele>
        <time>2016-07-03T08:32:25Z</time>
      </trkpt>
      <trkpt lat="48.72421" lon="2.47045">
        <ele>81.85</ele>
        <time>2016-07-03T08:32:39Z</time>
      </trkpt>
      <trkpt lat="48.7243" lon="2.47058">
        <ele>81.85</ele>
        <time>2016-07-03T08:32:48Z</time>
      </trkpt>
      <trkpt lat="48.72435" lon="2.4708">
        <ele>82.33</ele>
        <time>2016-07-03T08:33:00Z</time>
      </trkpt>
      <trkpt lat="48.72436" lon="2.47095">
        <ele>82.81</ele>
        <time>2016-07-03T08:33:09Z</time>
      </trkpt>
      <trkpt lat="48.72433" lon="2.47113">
        <ele>82.81</ele>
        <time>2016-07-03T08:33:23Z</time>
      </trkpt>
      <trkpt lat="48.72431" lon="2.47124">
        <ele>82.81</ele>
        <time>2016-07-03T08:33:36Z</time>
      </trkpt>
      <trkpt lat="48.7243" lon="2.47131">
        <ele>82.81</ele>
        <time>2016-07-03T08:33:40Z</time>
      </trkpt>
      <trkpt lat="48.72432" lon="2.47139">
        <ele>82.81</ele>
        <time>2016-07-03T08:33:45Z</time>
      </trkpt>
      <trkpt lat="48.72433" lon="2.4716">
        <ele>82.81</ele>
        <time>2016-07-03T08:34:01Z</time>
      </trkpt>
      <trkpt lat="48.72437" lon="2.47172">
        <ele>82.33</ele>
        <time>2016-07-03T08:34:23Z</time>
      </trkpt>
      <trkpt lat="48.7244" lon="2.47191">
        <ele>82.33</ele>
        <time>2016-07-03T08:34:38Z</time>
      </trkpt>
      <trkpt lat="48.72443" lon="2.4722">
        <ele>81.85</ele>
        <time>2016-07-03T08:34:54Z</time>
      </trkpt>
      <trkpt lat="48.72448" lon="2.47242">
        <ele>81.37</ele>
        <time>2016-07-03T08:35:11Z</time>
      </trkpt>
      <trkpt lat="48.72453" lon="2.47269">
        <ele>81.37</ele>
        <time>2016-07-03T08:35:28Z</time>
      </trkpt>
      <trkpt lat="48.72455" lon="2.47297">
        <ele>81.37</ele>
        <time>2016-07-03T08:35:44Z</time>
      </trkpt>
      <trkpt lat="48.72458" lon="2.47322">
        <ele>80.89</ele>
        <time>2016-07-03T08:35:59Z</time>
      </trkpt>
      <trkpt lat="48.7246" lon="2.47344">
        <ele>80.89</ele>
        <time>2016-07-03T08:36:14Z</time>
      </trkpt>
      <trkpt lat="48.72464" lon="2.47369">
        <ele>80.41</ele>
        <time>2016-07-03T08:36:31Z</time>
      </trkpt>
      <trkpt lat="48.72468" lon="2.47394">
        <ele>79.93</ele>
        <time>2016-07-03T08:36:48Z</time>
      </trkpt>
      <trkpt lat="48.72471" lon="2.47419">
        <ele>79.93</ele>
        <time>2016-07-03T08:37:03Z</time>
      </trkpt>
      <trkpt lat="48.72479" lon="2.47467">
        <ele>79.93</ele>
        <time>2016-07-03T08:37:23Z</time>
      </trkpt>
      <trkpt lat="48.72483" lon="2.47502">
        <ele>79.45</ele>
        <time>2016-07-03T08:37:43Z</time>
      </trkpt>
      <trkpt lat="48.72487" lon="2.47531">
        <ele>79.93</ele>
        <time>2016-07-03T08:38:02Z</time>
      </trkpt>
      <trkpt lat="48.72487" lon="2.4756">
        <ele>79.93</ele>
        <time>2016-07-03T08:38:20Z</time>
      </trkpt>
      <trkpt lat="48.72493" lon="2.47588">
        <ele>79.45</ele>
        <time>2016-07-03T08:38:35Z</time>
      </trkpt>
      <trkpt lat="48.72499" lon="2.47617">
        <ele>79.93</ele>
        <time>2016-07-03T08:38:52Z</time>
      </trkpt>
      <trkpt lat="48.72505" lon="2.47644">
        <ele>79.45</ele>
        <time>2016-07-03T08:39:07Z</time>
      </trkpt>
      <trkpt lat="48.72507" lon="2.47652">
        <ele>79.45</ele>
        <time>2016-07-03T08:39:21Z</time>
      </trkpt>
      <trkpt lat="48.72505" lon="2.47654">
        <ele>79.93</ele>
        <time>2016-07-03T08:39:37Z</time>
      </trkpt>
      <trkpt lat="48.72506" lon="2.47652">
        <ele>79.93</ele>
        <time>2016-07-03T08:40:04Z</time>
      </trkpt>
      <trkpt lat="48.72505" lon="2.47651">
        <ele>79.93</ele>
        <time>2016-07-03T08:40:21Z</time>
      </trkpt>
      <trkpt lat="48.72506" lon="2.47655">
        <ele>79.93</ele>
        <time>2016-07-03T08:40:39Z</time>
      </trkpt>
      <trkpt lat="48.72504" lon="2.47654">
        <ele>80.41</ele>
        <time>2016-07-03T08:41:03Z</time>
      </trkpt>
      <trkpt lat="48.72506" lon="2.47664">
        <ele>80.41</ele>
        <time>2016-07-03T08:41:22Z</time>
      </trkpt>
      <trkpt lat="48.7251" lon="2.47683">
        <ele>80.89</ele>
        <time>2016-07-03T08:41:37Z</time>
      </trkpt>
      <trkpt lat="48.72518" lon="2.47705">
        <ele>80.89</ele>
        <time>2016-07-03T08:41:55Z</time>
      </trkpt>
      <trkpt lat="48.72523" lon="2.47729">
        <ele>80.89</ele>
        <time>2016-07-03T08:42:13Z</time>
      </trkpt>
      <trkpt lat="48.72524" lon="2.4775">
        <ele>80.89</ele>
        <time>2016-07-03T08:42:29Z</time>
      </trkpt>
      <trkpt lat="48.72533" lon="2.47772">
        <ele>80.89</ele>
        <time>2016-07-03T08:42:44Z</time>
      </trkpt>
      <trkpt lat="48.72538" lon="2.47799">
        <ele>81.37</ele>
        <time>2016-07-03T08:43:00Z</time>
      </trkpt>
      <trkpt lat="48.72535" lon="2.47818">
        <ele>80.89</ele>
        <time>2016-07-03T08:43:15Z</time>
      </trkpt>
      <trkpt lat="48.72537" lon="2.47845">
        <ele>81.37</ele>
        <time>2016-07-03T08:43:32Z</time>
      </trkpt>
      <trkpt lat="48.72542" lon="2.47871">
        <ele>81.37</ele>
        <time>2016-07-03T08:43:50Z</time>
      </trkpt>
      <trkpt lat="48.72551" lon="2.47906">
        <ele>81.37</ele>
        <time>2016-07-03T08:44:06Z</time>
      </trkpt>
      <trkpt lat="48.72553" lon="2.47931">
        <ele>80.89</ele>
        <time>2016-07-03T08:44:21Z</time>
      </trkpt>
      <trkpt lat="48.72564" lon="2.47957">
        <ele>80.89</ele>
        <time>2016-07-03T08:44:35Z</time>
      </trkpt>
      <trkpt lat="48.72574" lon="2.47988">
        <ele>80.41</ele>
        <time>2016-07-03T08:44:51Z</time>
      </trkpt>
      <trkpt lat="48.72578" lon="2.48008">
        <ele>80.89</ele>
        <time>2016-07-03T08:45:05Z</time>
      </trkpt>
      <trkpt lat="48.72577" lon="2.48024">
        <ele>80.89</ele>
        <time>2016-07-03T08:45:25Z</time>
      </trkpt>
      <trkpt lat="48.72581" lon="2.48039">
        <ele>80.89</ele>
        <time>2016-07-03T08:45:45Z</time>
      </trkpt>
      <trkpt lat="48.72581" lon="2.48044">
        <ele>80.41</ele>
        <time>2016-07-03T08:45:50Z</time>
      </trkpt>
      <trkpt lat="48.72586" lon="2.48065">
        <ele>80.41</ele>
        <time>2016-07-03T08:46:06Z</time>
      </trkpt>
      <trkpt lat="48.72587" lon="2.4807">
        <ele>80.41</ele>
        <time>2016-07-03T08:46:12Z</time>
      </trkpt>
      <trkpt lat="48.72595" lon="2.4809">
        <ele>80.41</ele>
        <time>2016-07-03T08:46:25Z</time>
      </trkpt>
      <trkpt lat="48.72597" lon="2.48108">
        <ele>80.41</ele>
        <time>2016-07-03T08:46:36Z</time>
      </trkpt>
      <trkpt lat="48.72596" lon="2.48135">
        <ele>80.41</ele>
        <time>2016-07-03T08:46:53Z</time>
      </trkpt>
      <trkpt lat="48.72601" lon="2.48176">
        <ele>80.41</ele>
        <time>2016-07-03T08:47:11Z</time>
      </trkpt>
      <trkpt lat="48.7261" lon="2.48192">
        <ele>80.41</ele>
        <time>2016-07-03T08:47:23Z</time>
      </trkpt>
      <trkpt lat="48.72613" lon="2.48217">
        <ele>79.93</ele>
        <time>2016-07-03T08:47:39Z</time>
      </trkpt>
      <trkpt lat="48.72617" lon="2.48233">
        <ele>79.93</ele>
        <time>2016-07-03T08:47:53Z</time>
      </trkpt>
      <trkpt lat="48.72618" lon="2.48258">
        <ele>79.93</ele>
        <time>2016-07-03T08:48:09Z</time>
      </trkpt>
      <trkpt lat="48.72622" lon="2.48292">
        <ele>79.45</ele>
        <time>2016-07-03T08:48:25Z</time>
      </trkpt>
      <trkpt lat="48.72633" lon="2.48321">
        <ele>79.45</ele>
        <time>2016-07-03T08:48:40Z</time>
      </trkpt>
      <trkpt lat="48.72639" lon="2.48346">
        <ele>78.97</ele>
        <time>2016-07-03T08:48:55Z</time>
      </trkpt>
      <trkpt lat="48.72649" lon="2.48375">
        <ele>78.97</ele>
        <time>2016-07-03T08:49:12Z</time>
      </trkpt>
      <trkpt lat="48.72653" lon="2.48398">
        <ele>78.48</ele>
        <time>2016-07-03T08:49:25Z</time>
      </trkpt>
      <trkpt lat="48.72658" lon="2.48421">
        <ele>78.48</ele>
        <time>2016-07-03T08:49:40Z</time>
      </trkpt>
      <trkpt lat="48.72663" lon="2.48451">
        <ele>78.48</ele>
        <time>2016-07-03T08:49:59Z</time>
      </trkpt>
      <trkpt lat="48.72669" lon="2.48485">
        <ele>78.48</ele>
        <time>2016-07-03T08:50:17Z</time>
      </trkpt>
      <trkpt lat="48.72672" lon="2.48507">
        <ele>78.48</ele>
        <time>2016-07-03T08:50:32Z</time>
      </trkpt>
      <trkpt lat="48.72694" lon="2.48542">
        <ele>78.48</ele>
        <time>2016-07-03T08:50:48Z</time>
      </trkpt>
      <trkpt lat="48.72697" lon="2.48559">
        <ele>78.97</ele>
        <time>2016-07-03T08:51:00Z</time>
      </trkpt>
      <trkpt lat="48.72695" lon="2.48562">
        <ele>78.97</ele>
        <time>2016-07-03T08:51:21Z</time>
      </trkpt>
      <trkpt lat="48.72708" lon="2.48563">
        <ele>78.48</ele>
        <time>2016-07-03T08:51:38Z</time>
      </trkpt>
      <trkpt lat="48.72724" lon="2.4856">
        <ele>78.97</ele>
        <time>2016-07-03T08:51:53Z</time>
      </trkpt>
      <trkpt lat="48.72737" lon="2.48569">
        <ele>79.45</ele>
        <time>2016-07-03T08:52:07Z</time>
      </trkpt>
      <trkpt lat="48.72742" lon="2.48567">
        <ele>79.45</ele>
        <time>2016-07-03T08:52:11Z</time>
      </trkpt>
      <trkpt lat="48.72749" lon="2.48568">
        <ele>79.45</ele>
        <time>2016-07-03T08:52:17Z</time>
      </trkpt>
      <trkpt lat="48.72766" lon="2.48557">
        <ele>79.45</ele>
        <time>2016-07-03T08:52:34Z</time>
      </trkpt>
      <trkpt lat="48.72779" lon="2.48547">
        <ele>79.93</ele>
        <time>2016-07-03T08:52:51Z</time>
      </trkpt>
      <trkpt lat="48.72797" lon="2.48531">
        <ele>80.41</ele>
        <time>2016-07-03T08:53:08Z</time>
      </trkpt>
      <trkpt lat="48.72816" lon="2.48524">
        <ele>80.41</ele>
        <time>2016-07-03T08:53:24Z</time>
      </trkpt>
      <trkpt lat="48.72834" lon="2.48511">
        <ele>80.41</ele>
        <time>2016-07-03T08:53:44Z</time>
      </trkpt>
      <trkpt lat="48.72855" lon="2.48502">
        <ele>80.41</ele>
        <time>2016-07-03T08:54:00Z</time>
      </trkpt>
      <trkpt lat="48.72867" lon="2.48495">
        <ele>80.89</ele>
        <time>2016-07-03T08:54:16Z</time>
      </trkpt>
      <trkpt lat="48.72876" lon="2.48482">
        <ele>80.41</ele>
        <time>2016-07-03T08:54:35Z</time>
      </trkpt>
      <trkpt lat="48.72903" lon="2.48468">
        <ele>80.41</ele>
        <time>2016-07-03T08:54:55Z</time>
      </trkpt>
      <trkpt lat="48.72915" lon="2.48466">
        <ele>80.89</ele>
        <time>2016-07-03T08:55:11Z</time>
      </trkpt>
      <trkpt lat="48.72924" lon="2.48474">
        <ele>80.89</ele>
        <time>2016-07-03T08:55:26Z</time>
      </trkpt>
      <trkpt lat="48.72925" lon="2.48479">
        <ele>80.89</ele>
        <time>2016-07-03T08:55:38Z</time>
      </trkpt>
      <trkpt lat="48.72932" lon="2.4851">
        <ele>80.89</ele>
        <time>2016-07-03T08:55:54Z</time>
      </trkpt>
      <trkpt lat="48.7294" lon="2.48528">
        <ele>80.89</ele>
        <time>2016-07-03T08:56:07Z</time>
      </trkpt>
      <trkpt lat="48.72942" lon="2.48543">
        <ele>81.37</ele>
        <time>2016-07-03T08:56:20Z</time>
      </trkpt>
      <trkpt lat="48.72949" lon="2.48572">
        <ele>81.37</ele>
        <time>2016-07-03T08:56:39Z</time>
      </trkpt>
      <trkpt lat="48.72955" lon="2.48602">
        <ele>81.37</ele>
        <time>2016-07-03T08:56:55Z</time>
      </trkpt>
      <trkpt lat="48.72963" lon="2.48624">
        <ele>80.89</ele>
        <time>2016-07-03T08:57:09Z</time>
      </trkpt>
      <trkpt lat="48.72969" lon="2.48641">
        <ele>80.89</ele>
        <time>2016-07-03T08:57:24Z</time>
      </trkpt>
      <trkpt lat="48.72978" lon="2.48659">
        <ele>80.89</ele>
        <time>2016-07-03T08:57:42Z</time>
      </trkpt>
      <trkpt lat="48.72981" lon="2.48675">
        <ele>80.41</ele>
        <time>2016-07-03T08:57:55Z</time>
      </trkpt>
      <trkpt lat="48.72994" lon="2.48701">
        <ele>80.41</ele>
        <time>2016-07-03T08:58:12Z</time>
      </trkpt>
      <trkpt lat="48.72995" lon="2.48716">
        <ele>80.41</ele>
        <time>2016-07-03T08:58:20Z</time>
      </trkpt>
      <trkpt lat="48.73001" lon="2.48731">
        <ele>80.89</ele>
        <time>2016-07-03T08:58:34Z</time>
      </trkpt>
      <trkpt lat="48.73009" lon="2.48759">
        <ele>80.89</ele>
        <time>2016-07-03T08:58:50Z</time>
      </trkpt>
      <trkpt lat="48.73014" lon="2.48769">
        <ele>80.89</ele>
        <time>2016-07-03T08:59:02Z</time>
      </trkpt>
      <trkpt lat="48.73012" lon="2.48781">
        <ele>80.89</ele>
        <time>2016-07-03T08:59:21Z</time>
      </trkpt>
      <trkpt lat="48.73014" lon="2.48789">
        <ele>80.41</ele>
        <time>2016-07-03T08:59:39Z</time>
      </trkpt>
      <trkpt lat="48.73021" lon="2.48809">
        <ele>80.41</ele>
        <time>2016-07-03T08:59:56Z</time>
      </trkpt>
      <trkpt lat="48.73031" lon="2.48825">
        <ele>80.41</ele>
        <time>2016-07-03T09:00:18Z</time>
      </trkpt>
      <trkpt lat="48.73039" lon="2.48842">
        <ele>80.41</ele>
        <time>2016-07-03T09:00:27Z</time>
      </trkpt>
      <trkpt lat="48.73047" lon="2.48855">
        <ele>80.41</ele>
        <time>2016-07-03T09:00:36Z</time>
      </trkpt>
      <trkpt lat="48.73054" lon="2.48871">
        <ele>80.41</ele>
        <time>2016-07-03T09:00:49Z</time>
      </trkpt>
      <trkpt lat="48.73056" lon="2.48882">
        <ele>80.41</ele>
        <time>2016-07-03T09:01:03Z</time>
      </trkpt>
      <trkpt lat="48.73057" lon="2.48874">
        <ele>80.89</ele>
        <time>2016-07-03T09:01:22Z</time>
      </trkpt>
      <trkpt lat="48.73057" lon="2.48868">
        <ele>80.89</ele>
        <time>2016-07-03T09:01:42Z</time>
      </trkpt>
      <trkpt lat="48.73059" lon="2.48874">
        <ele>80.89</ele>
        <time>2016-07-03T09:02:00Z</time>
      </trkpt>
      <trkpt lat="48.73061" lon="2.48887">
        <ele>80.89</ele>
        <time>2016-07-03T09:02:21Z</time>
      </trkpt>
      <trkpt lat="48.73075" lon="2.48874">
        <ele>80.89</ele>
        <time>2016-07-03T09:02:36Z</time>
      </trkpt>
      <trkpt lat="48.73085" lon="2.48858">
        <ele>80.89</ele>
        <time>2016-07-03T09:02:50Z</time>
      </trkpt>
      <trkpt lat="48.73095" lon="2.48846">
        <ele>80.89</ele>
        <time>2016-07-03T09:03:05Z</time>
      </trkpt>
      <trkpt lat="48.73097" lon="2.48836">
        <ele>81.37</ele>
        <time>2016-07-03T09:03:19Z</time>
      </trkpt>
      <trkpt lat="48.73115" lon="2.48819">
        <ele>81.37</ele>
        <time>2016-07-03T09:03:33Z</time>
      </trkpt>
      <trkpt lat="48.73128" lon="2.48804">
        <ele>81.37</ele>
        <time>2016-07-03T09:03:47Z</time>
      </trkpt>
      <trkpt lat="48.73143" lon="2.48784">
        <ele>81.37</ele>
        <time>2016-07-03T09:04:06Z</time>
      </trkpt>
      <trkpt lat="48.73154" lon="2.48763">
        <ele>80.89</ele>
        <time>2016-07-03T09:04:21Z</time>
      </trkpt>
      <trkpt lat="48.73172" lon="2.48737">
        <ele>80.89</ele>
        <time>2016-07-03T09:04:40Z</time>
      </trkpt>
      <trkpt lat="48.73186" lon="2.48722">
        <ele>80.89</ele>
        <time>2016-07-03T09:04:55Z</time>
      </trkpt>
      <trkpt lat="48.73196" lon="2.48706">
        <ele>80.41</ele>
        <time>2016-07-03T09:05:09Z</time>
      </trkpt>
      <trkpt lat="48.73214" lon="2.48688">
        <ele>80.41</ele>
        <time>2016-07-03T09:05:24Z</time>
      </trkpt>
      <trkpt lat="48.73217" lon="2.48685">
        <ele>79.93</ele>
        <time>2016-07-03T09:05:27Z</time>
      </trkpt>
      <trkpt lat="48.7323" lon="2.48678">
        <ele>80.41</ele>
        <time>2016-07-03T09:05:39Z</time>
      </trkpt>
      <trkpt lat="48.7324" lon="2.48672">
        <ele>80.41</ele>
        <time>2016-07-03T09:05:48Z</time>
      </trkpt>
      <trkpt lat="48.73255" lon="2.4867">
        <ele>80.41</ele>
        <time>2016-07-03T09:06:01Z</time>
      </trkpt>
      <trkpt lat="48.73265" lon="2.4867">
        <ele>80.41</ele>
        <time>2016-07-03T09:06:10Z</time>
      </trkpt>
      <trkpt lat="48.73265" lon="2.48684">
        <ele>80.41</ele>
        <time>2016-07-03T09:06:25Z</time>
      </trkpt>
      <trkpt lat="48.73266" lon="2.48694">
        <ele>80.41</ele>
        <time>2016-07-03T09:06:42Z</time>
      </trkpt>
      <trkpt lat="48.73264" lon="2.48716">
        <ele>80.41</ele>
        <time>2016-07-03T09:06:58Z</time>
      </trkpt>
      <trkpt lat="48.73261" lon="2.4873">
        <ele>80.41</ele>
        <time>2016-07-03T09:07:11Z</time>
      </trkpt>
      <trkpt lat="48.73264" lon="2.48749">
        <ele>80.41</ele>
        <time>2016-07-03T09:07:26Z</time>
      </trkpt>
      <trkpt lat="48.73273" lon="2.48754">
        <ele>80.41</ele>
        <time>2016-07-03T09:07:39Z</time>
      </trkpt>
      <trkpt lat="48.73276" lon="2.48752">
        <ele>80.41</ele>
        <time>2016-07-03T09:07:58Z</time>
      </trkpt>
      <trkpt lat="48.73272" lon="2.48756">
        <ele>80.41</ele>
        <time>2016-07-03T09:08:19Z</time>
      </trkpt>
      <trkpt lat="48.73265" lon="2.4876">
        <ele>80.41</ele>
        <time>2016-07-03T09:08:37Z</time>
      </trkpt>
      <trkpt lat="48.73266" lon="2.48761">
        <ele>79.93</ele>
        <time>2016-07-03T09:09:04Z</time>
      </trkpt>
      <trkpt lat="48.73272" lon="2.48766">
        <ele>79.93</ele>
        <time>2016-07-03T09:09:22Z</time>
      </trkpt>
      <trkpt lat="48.73279" lon="2.4878">
        <ele>79.93</ele>
        <time>2016-07-03T09:09:40Z</time>
      </trkpt>
      <trkpt lat="48.73283" lon="2.48811">
        <ele>79.93</ele>
        <time>2016-07-03T09:10:00Z</time>
      </trkpt>
      <trkpt lat="48.73289" lon="2.4883">
        <ele>80.41</ele>
        <time>2016-07-03T09:10:19Z</time>
      </trkpt>
      <trkpt lat="48.73286" lon="2.48843">
        <ele>79.93</ele>
        <time>2016-07-03T09:10:31Z</time>
      </trkpt>
      <trkpt lat="48.73284" lon="2.48873">
        <ele>79.93</ele>
        <time>2016-07-03T09:10:51Z</time>
      </trkpt>
      <trkpt lat="48.73295" lon="2.48909">
        <ele>80.41</ele>
        <time>2016-07-03T09:11:08Z</time>
      </trkpt>
      <trkpt lat="48.733" lon="2.48927">
        <ele>80.41</ele>
        <time>2016-07-03T09:11:20Z</time>
      </trkpt>
      <trkpt lat="48.73304" lon="2.48947">
        <ele>80.41</ele>
        <time>2016-07-03T09:11:35Z</time>
      </trkpt>
      <trkpt lat="48.73304" lon="2.4897">
        <ele>80.41</ele>
        <time>2016-07-03T09:11:52Z</time>
      </trkpt>
      <trkpt lat="48.73307" lon="2.48996">
        <ele>80.41</ele>
        <time>2016-07-03T09:12:08Z</time>
      </trkpt>
      <trkpt lat="48.73309" lon="2.49029">
        <ele>80.41</ele>
        <time>2016-07-03T09:12:27Z</time>
      </trkpt>
      <trkpt lat="48.73313" lon="2.49048">
        <ele>79.93</ele>
        <time>2016-07-03T09:12:41Z</time>
      </trkpt>
      <trkpt lat="48.73317" lon="2.4908">
        <ele>79.93</ele>
        <time>2016-07-03T09:12:59Z</time>
      </trkpt>
      <trkpt lat="48.73323" lon="2.49112">
        <ele>79.93</ele>
        <time>2016-07-03T09:13:20Z</time>
      </trkpt>
      <trkpt lat="48.73325" lon="2.49139">
        <ele>79.93</ele>
        <time>2016-07-03T09:13:39Z</time>
      </trkpt>
      <trkpt lat="48.73337" lon="2.49169">
        <ele>79.93</ele>
        <time>2016-07-03T09:13:55Z</time>
      </trkpt>
      <trkpt lat="48.7334" lon="2.49179">
        <ele>79.45</ele>
        <time>2016-07-03T09:14:01Z</time>
      </trkpt>
      <trkpt lat="48.73344" lon="2.49199">
        <ele>80.41</ele>
        <time>2016-07-03T09:14:15Z</time>
      </trkpt>
      <trkpt lat="48.73345" lon="2.4922">
        <ele>79.93</ele>
        <time>2016-07-03T09:14:33Z</time>
      </trkpt>
      <trkpt lat="48.73348" lon="2.49252">
        <ele>79.93</ele>
        <time>2016-07-03T09:14:53Z</time>
      </trkpt>
      <trkpt lat="48.73353" lon="2.49268">
        <ele>80.41</ele>
        <time>2016-07-03T09:15:08Z</time>
      </trkpt>
      <trkpt lat="48.73354" lon="2.49291">
        <ele>80.41</ele>
        <time>2016-07-03T09:15:30Z</time>
      </trkpt>
      <trkpt lat="48.73362" lon="2.49329">
        <ele>80.41</ele>
        <time>2016-07-03T09:15:50Z</time>
      </trkpt>
      <trkpt lat="48.73367" lon="2.49351">
        <ele>80.89</ele>
        <time>2016-07-03T09:16:08Z</time>
      </trkpt>
      <trkpt lat="48.73375" lon="2.49361">
        <ele>80.41</ele>
        <time>2016-07-03T09:16:23Z</time>
      </trkpt>
      <trkpt lat="48.73371" lon="2.49353">
        <ele>80.41</ele>
        <time>2016-07-03T09:16:47Z</time>
      </trkpt>
      <trkpt lat="48.73393" lon="2.49357">
        <ele>80.89</ele>
        <time>2016-07-03T09:17:11Z</time>
      </trkpt>
      <trkpt lat="48.73391" lon="2.49357">
        <ele>80.89</ele>
        <time>2016-07-03T09:17:40Z</time>
      </trkpt>
      <trkpt lat="48.73395" lon="2.49355">
        <ele>80.89</ele>
        <time>2016-07-03T09:17:56Z</time>
      </trkpt>
      <trkpt lat="48.73407" lon="2.49352">
        <ele>81.37</ele>
        <time>2016-07-03T09:18:11Z</time>
      </trkpt>
      <trkpt lat="48.73413" lon="2.49355">
        <ele>81.37</ele>
        <time>2016-07-03T09:18:16Z</time>
      </trkpt>
      <trkpt lat="48.73412" lon="2.49374">
        <ele>80.89</ele>
        <time>2016-07-03T09:18:31Z</time>
      </trkpt>
      <trkpt lat="48.73415" lon="2.49398">
        <ele>81.37</ele>
        <time>2016-07-03T09:18:44Z</time>
      </trkpt>
      <trkpt lat="48.73411" lon="2.49407">
        <ele>81.37</ele>
        <time>2016-07-03T09:18:59Z</time>
      </trkpt>
      <trkpt lat="48.73406" lon="2.49423">
        <ele>81.37</ele>
        <time>2016-07-03T09:19:12Z</time>
      </trkpt>
      <trkpt lat="48.73403" lon="2.49452">
        <ele>81.37</ele>
        <time>2016-07-03T09:19:30Z</time>
      </trkpt>
      <trkpt lat="48.73398" lon="2.49485">
        <ele>81.37</ele>
        <time>2016-07-03T09:19:48Z</time>
      </trkpt>
      <trkpt lat="48.734" lon="2.49498">
        <ele>81.37</ele>
        <time>2016-07-03T09:19:59Z</time>
      </trkpt>
      <trkpt lat="48.73393" lon="2.49509">
        <ele>81.37</ele>
        <time>2016-07-03T09:20:17Z</time>
      </trkpt>
      <trkpt lat="48.73394" lon="2.49537">
        <ele>81.37</ele>
        <time>2016-07-03T09:20:32Z</time>
      </trkpt>
      <trkpt lat="48.73391" lon="2.49561">
        <ele>81.37</ele>
        <time>2016-07-03T09:20:46Z</time>
      </trkpt>
      <trkpt lat="48.73387" lon="2.49582">
        <ele>81.37</ele>
        <time>2016-07-03T09:21:01Z</time>
      </trkpt>
      <trkpt lat="48.73385" lon="2.49597">
        <ele>81.85</ele>
        <time>2016-07-03T09:21:14Z</time>
      </trkpt>
      <trkpt lat="48.73382" lon="2.49629">
        <ele>81.85</ele>
        <time>2016-07-03T09:21:33Z</time>
      </trkpt>
      <trkpt lat="48.73386" lon="2.49661">
        <ele>81.85</ele>
        <time>2016-07-03T09:21:50Z</time>
      </trkpt>
      <trkpt lat="48.7339" lon="2.4967">
        <ele>81.85</ele>
        <time>2016-07-03T09:22:02Z</time>
      </trkpt>
      <trkpt lat="48.73389" lon="2.49672">
        <ele>81.85</ele>
        <time>2016-07-03T09:22:28Z</time>
      </trkpt>
      <trkpt lat="48.73388" lon="2.49673">
        <ele>81.85</ele>
        <time>2016-07-03T09:22:47Z</time>
      </trkpt>
      <trkpt lat="48.73372" lon="2.49682">
        <ele>82.33</ele>
        <time>2016-07-03T09:23:03Z</time>
      </trkpt>
      <trkpt lat="48.73362" lon="2.49684">
        <ele>82.33</ele>
        <time>2016-07-03T09:23:14Z</time>
      </trkpt>
      <trkpt lat="48.73352" lon="2.49686">
        <ele>81.85</ele>
        <time>2016-07-03T09:23:23Z</time>
      </trkpt>
      <trkpt lat="48.73339" lon="2.49693">
        <ele>82.33</ele>
        <time>2016-07-03T09:23:38Z</time>
      </trkpt>
      <trkpt lat="48.7333" lon="2.49693">
        <ele>82.33</ele>
        <time>2016-07-03T09:23:53Z</time>
      </trkpt>
      <trkpt lat="48.73326" lon="2.49708">
        <ele>82.81</ele>
        <time>2016-07-03T09:24:07Z</time>
      </trkpt>
      <trkpt lat="48.73326" lon="2.49721">
        <ele>83.77</ele>
        <time>2016-07-03T09:24:22Z</time>
      </trkpt>
      <trkpt lat="48.73322" lon="2.49718">
        <ele>84.25</ele>
        <time>2016-07-03T09:24:42Z</time>
      </trkpt>
      <trkpt lat="48.73328" lon="2.49722">
        <ele>84.73</ele>
        <time>2016-07-03T09:24:57Z</time>
      </trkpt>
      <trkpt lat="48.73334" lon="2.49737">
        <ele>83.77</ele>
        <time>2016-07-03T09:25:12Z</time>
      </trkpt>
      <trkpt lat="48.73333" lon="2.49737">
        <ele>83.29</ele>
        <time>2016-07-03T09:25:14Z</time>
      </trkpt>
      <trkpt lat="48.73331" lon="2.49732">
        <ele>83.77</ele>
        <time>2016-07-03T09:25:20Z</time>
      </trkpt>
      <trkpt lat="48.73319" lon="2.49739">
        <ele>83.29</ele>
        <time>2016-07-03T09:25:39Z</time>
      </trkpt>
      <trkpt lat="48.73302" lon="2.49752">
        <ele>83.77</ele>
        <time>2016-07-03T09:25:57Z</time>
      </trkpt>
      <trkpt lat="48.73285" lon="2.49764">
        <ele>83.29</ele>
        <time>2016-07-03T09:26:17Z</time>
      </trkpt>
      <trkpt lat="48.7326" lon="2.49771">
        <ele>83.29</ele>
        <time>2016-07-03T09:26:34Z</time>
      </trkpt>
      <trkpt lat="48.73249" lon="2.49774">
        <ele>83.77</ele>
        <time>2016-07-03T09:26:45Z</time>
      </trkpt>
      <trkpt lat="48.73233" lon="2.4978">
        <ele>83.29</ele>
        <time>2016-07-03T09:27:01Z</time>
      </trkpt>
      <trkpt lat="48.7323" lon="2.49781">
        <ele>83.29</ele>
        <time>2016-07-03T09:27:04Z</time>
      </trkpt>
      <trkpt lat="48.7322" lon="2.49785">
        <ele>83.77</ele>
        <time>2016-07-03T09:27:19Z</time>
      </trkpt>
      <trkpt lat="48.73202" lon="2.49793">
        <ele>83.29</ele>
        <time>2016-07-03T09:27:36Z</time>
      </trkpt>
      <trkpt lat="48.73185" lon="2.49806">
        <ele>83.29</ele>
        <time>2016-07-03T09:27:50Z</time>
      </trkpt>
      <trkpt lat="48.73166" lon="2.49815">
        <ele>83.29</ele>
        <time>2016-07-03T09:28:07Z</time>
      </trkpt>
      <trkpt lat="48.73155" lon="2.49817">
        <ele>83.29</ele>
        <time>2016-07-03T09:28:20Z</time>
      </trkpt>
      <trkpt lat="48.73134" lon="2.49821">
        <ele>83.29</ele>
        <time>2016-07-03T09:28:38Z</time>
      </trkpt>
      <trkpt lat="48.73121" lon="2.4983">
        <ele>83.29</ele>
        <time>2016-07-03T09:28:51Z</time>
      </trkpt>
      <trkpt lat="48.73107" lon="2.49835">
        <ele>83.29</ele>
        <time>2016-07-03T09:29:07Z</time>
      </trkpt>
      <trkpt lat="48.73093" lon="2.49846">
        <ele>83.29</ele>
        <time>2016-07-03T09:29:23Z</time>
      </trkpt>
      <trkpt lat="48.73064" lon="2.49861">
        <ele>83.77</ele>
        <time>2016-07-03T09:29:45Z</time>
      </trkpt>
      <trkpt lat="48.73046" lon="2.49869">
        <ele>83.77</ele>
        <time>2016-07-03T09:30:00Z</time>
      </trkpt>
      <trkpt lat="48.73029" lon="2.49879">
        <ele>83.77</ele>
        <time>2016-07-03T09:30:18Z</time>
      </trkpt>
      <trkpt lat="48.73017" lon="2.49897">
        <ele>83.77</ele>
        <time>2016-07-03T09:30:32Z</time>
      </trkpt>
      <trkpt lat="48.73013" lon="2.4991">
        <ele>83.77</ele>
        <time>2016-07-03T09:30:39Z</time>
      </trkpt>
      <trkpt lat="48.73011" lon="2.49906">
        <ele>83.77</ele>
        <time>2016-07-03T09:30:53Z</time>
      </trkpt>
      <trkpt lat="48.73012" lon="2.49909">
        <ele>83.77</ele>
        <time>2016-07-03T09:30:58Z</time>
      </trkpt>
      <trkpt lat="48.73009" lon="2.49928">
        <ele>84.25</ele>
        <time>2016-07-03T09:31:13Z</time>
      </trkpt>
      <trkpt lat="48.73007" lon="2.49935">
        <ele>83.77</ele>
        <time>2016-07-03T09:31:17Z</time>
      </trkpt>
      <trkpt lat="48.73003" lon="2.49959">
        <ele>84.25</ele>
        <time>2016-07-03T09:31:33Z</time>
      </trkpt>
      <trkpt lat="48.73" lon="2.49964">
        <ele>84.25</ele>
        <time>2016-07-03T09:31:39Z</time>
      </trkpt>
      <trkpt lat="48.7299" lon="2.4996">
        <ele>84.25</ele>
        <time>2016-07-03T09:31:54Z</time>
      </trkpt>
      <trkpt lat="48.72991" lon="2.49963">
        <ele>84.25</ele>
        <time>2016-07-03T09:31:57Z</time>
      </trkpt>
      <trkpt lat="48.72984" lon="2.49966">
        <ele>83.77</ele>
        <time>2016-07-03T09:32:09Z</time>
      </trkpt>
      <trkpt lat="48.72976" lon="2.49952">
        <ele>84.25</ele>
        <time>2016-07-03T09:32:21Z</time>
      </trkpt>
      <trkpt lat="48.72957" lon="2.49936">
        <ele>84.25</ele>
        <time>2016-07-03T09:32:38Z</time>
      </trkpt>
      <trkpt lat="48.72945" lon="2.49938">
        <ele>84.25</ele>
        <time>2016-07-03T09:32:52Z</time>
      </trkpt>
      <trkpt lat="48.72947" lon="2.49947">
        <ele>84.25</ele>
        <time>2016-07-03T09:33:05Z</time>
      </trkpt>
      <trkpt lat="48.72946" lon="2.49947">
        <ele>84.73</ele>
        <time>2016-07-03T09:33:27Z</time>
      </trkpt>
      <trkpt lat="48.72945" lon="2.49955">
        <ele>84.73</ele>
        <time>2016-07-03T09:33:46Z</time>
      </trkpt>
      <trkpt lat="48.72946" lon="2.49968">
        <ele>84.73</ele>
        <time>2016-07-03T09:33:58Z</time>
      </trkpt>
      <trkpt lat="48.72949" lon="2.49989">
        <ele>85.21</ele>
        <time>2016-07-03T09:34:12Z</time>
      </trkpt>
      <trkpt lat="48.72949" lon="2.50008">
        <ele>85.21</ele>
        <time>2016-07-03T09:34:24Z</time>
      </trkpt>
      <trkpt lat="48.72953" lon="2.50032">
        <ele>85.21</ele>
        <time>2016-07-03T09:34:39Z</time>
      </trkpt>
      <trkpt lat="48.72955" lon="2.50059">
        <ele>85.21</ele>
        <time>2016-07-03T09:34:54Z</time>
      </trkpt>
      <trkpt lat="48.72957" lon="2.50082">
        <ele>85.21</ele>
        <time>2016-07-03T09:35:08Z</time>
      </trkpt>
      <trkpt lat="48.7296" lon="2.50103">
        <ele>85.21</ele>
        <time>2016-07-03T09:35:22Z</time>
      </trkpt>
      <trkpt lat="48.72964" lon="2.50134">
        <ele>85.69</ele>
        <time>2016-07-03T09:35:38Z</time>
      </trkpt>
      <trkpt lat="48.72966" lon="2.50157">
        <ele>85.69</ele>
        <time>2016-07-03T09:35:52Z</time>
      </trkpt>
      <trkpt lat="48.72965" lon="2.50183">
        <ele>85.69</ele>
        <time>2016-07-03T09:36:08Z</time>
      </trkpt>
      <trkpt lat="48.72968" lon="2.50211">
        <ele>85.69</ele>
        <time>2016-07-03T09:36:24Z</time>
      </trkpt>
      <trkpt lat="48.72971" lon="2.50232">
        <ele>85.69</ele>
        <time>2016-07-03T09:36:37Z</time>
      </trkpt>
      <trkpt lat="48.72975" lon="2.5025">
        <ele>85.69</ele>
        <time>2016-07-03T09:36:47Z</time>
      </trkpt>
      <trkpt lat="48.72978" lon="2.50276">
        <ele>86.18</ele>
        <time>2016-07-03T09:37:02Z</time>
      </trkpt>
      <trkpt lat="48.72979" lon="2.50298">
        <ele>86.18</ele>
        <time>2016-07-03T09:37:15Z</time>
      </trkpt>
      <trkpt lat="48.72984" lon="2.50324">
        <ele>85.69</ele>
        <time>2016-07-03T09:37:29Z</time>
      </trkpt>
      <trkpt lat="48.72984" lon="2.50332">
        <ele>85.69</ele>
        <time>2016-07-03T09:37:34Z</time>
      </trkpt>
      <trkpt lat="48.72983" lon="2.50342">
        <ele>85.69</ele>
        <time>2016-07-03T09:37:46Z</time>
      </trkpt>
      <trkpt lat="48.72974" lon="2.50347">
        <ele>86.18</ele>
        <time>2016-07-03T09:37:57Z</time>
      </trkpt>
      <trkpt lat="48.72967" lon="2.50348">
        <ele>85.69</ele>
        <time>2016-07-03T09:38:07Z</time>
      </trkpt>
      <trkpt lat="48.72953" lon="2.50348">
        <ele>85.69</ele>
        <time>2016-07-03T09:38:20Z</time>
      </trkpt>
      <trkpt lat="48.7294" lon="2.50346">
        <ele>86.18</ele>
        <time>2016-07-03T09:38:35Z</time>
      </trkpt>
      <trkpt lat="48.72914" lon="2.50346">
        <ele>86.66</ele>
        <time>2016-07-03T09:38:54Z</time>
      </trkpt>
      <trkpt lat="48.72892" lon="2.5035">
        <ele>87.14</ele>
        <time>2016-07-03T09:39:15Z</time>
      </trkpt>
      <trkpt lat="48.72871" lon="2.50351">
        <ele>87.62</ele>
        <time>2016-07-03T09:39:34Z</time>
      </trkpt>
      <trkpt lat="48.72844" lon="2.50355">
        <ele>88.58</ele>
        <time>2016-07-03T09:39:53Z</time>
      </trkpt>
      <trkpt lat="48.72829" lon="2.50358">
        <ele>89.06</ele>
        <time>2016-07-03T09:40:10Z</time>
      </trkpt>
      <trkpt lat="48.7282" lon="2.50359">
        <ele>89.06</ele>
        <time>2016-07-03T09:40:26Z</time>
      </trkpt>
      <trkpt lat="48.72801" lon="2.5036">
        <ele>90.02</ele>
        <time>2016-07-03T09:40:44Z</time>
      </trkpt>
      <trkpt lat="48.72783" lon="2.50363">
        <ele>90.5</ele>
        <time>2016-07-03T09:41:02Z</time>
      </trkpt>
      <trkpt lat="48.72784" lon="2.50361">
        <ele>90.98</ele>
        <time>2016-07-03T09:41:22Z</time>
      </trkpt>
      <trkpt lat="48.7276" lon="2.50362">
        <ele>91.94</ele>
        <time>2016-07-03T09:41:39Z</time>
      </trkpt>
      <trkpt lat="48.72743" lon="2.50364">
        <ele>92.42</ele>
        <time>2016-07-03T09:42:00Z</time>
      </trkpt>
      <trkpt lat="48.72722" lon="2.50364">
        <ele>93.39</ele>
        <time>2016-07-03T09:42:18Z</time>
      </trkpt>
      <trkpt lat="48.72704" lon="2.50368">
        <ele>93.39</ele>
        <time>2016-07-03T09:42:34Z</time>
      </trkpt>
      <trkpt lat="48.72691" lon="2.50365">
        <ele>93.87</ele>
        <time>2016-07-03T09:42:49Z</time>
      </trkpt>
      <trkpt lat="48.72672" lon="2.50367">
        <ele>94.35</ele>
        <time>2016-07-03T09:43:05Z</time>
      </trkpt>
      <trkpt lat="48.72653" lon="2.50373">
        <ele>94.83</ele>
        <time>2016-07-03T09:43:25Z</time>
      </trkpt>
      <trkpt lat="48.72634" lon="2.50374">
        <ele>94.83</ele>
        <time>2016-07-03T09:43:39Z</time>
      </trkpt>
      <trkpt lat="48.72612" lon="2.50387">
        <ele>96.27</ele>
        <time>2016-07-03T09:43:55Z</time>
      </trkpt>
      <trkpt lat="48.72599" lon="2.50387">
        <ele>95.79</ele>
        <time>2016-07-03T09:44:11Z</time>
      </trkpt>
      <trkpt lat="48.7259" lon="2.50381">
        <ele>95.31</ele>
        <time>2016-07-03T09:44:26Z</time>
      </trkpt>
      <trkpt lat="48.7257" lon="2.50374">
        <ele>95.79</ele>
        <time>2016-07-03T09:44:44Z</time>
      </trkpt>
      <trkpt lat="48.72548" lon="2.50372">
        <ele>95.79</ele>
        <time>2016-07-03T09:45:01Z</time>
      </trkpt>
      <trkpt lat="48.7253" lon="2.50374">
        <ele>95.79</ele>
        <time>2016-07-03T09:45:17Z</time>
      </trkpt>
      <trkpt lat="48.72506" lon="2.50372">
        <ele>96.27</ele>
        <time>2016-07-03T09:45:36Z</time>
      </trkpt>
      <trkpt lat="48.72483" lon="2.50376">
        <ele>95.79</ele>
        <time>2016-07-03T09:45:55Z</time>
      </trkpt>
      <trkpt lat="48.72465" lon="2.5038">
        <ele>95.31</ele>
        <time>2016-07-03T09:46:12Z</time>
      </trkpt>
      <trkpt lat="48.72446" lon="2.50383">
        <ele>94.83</ele>
        <time>2016-07-03T09:46:31Z</time>
      </trkpt>
      <trkpt lat="48.7243" lon="2.50383">
        <ele>94.35</ele>
        <time>2016-07-03T09:46:48Z</time>
      </trkpt>
      <trkpt lat="48.72407" lon="2.50388">
        <ele>93.87</ele>
        <time>2016-07-03T09:47:07Z</time>
      </trkpt>
      <trkpt lat="48.72384" lon="2.50389">
        <ele>92.9</ele>
        <time>2016-07-03T09:47:28Z</time>
      </trkpt>
      <trkpt lat="48.72359" lon="2.50392">
        <ele>91.94</ele>
        <time>2016-07-03T09:47:48Z</time>
      </trkpt>
      <trkpt lat="48.72338" lon="2.50396">
        <ele>91.46</ele>
        <time>2016-07-03T09:48:06Z</time>
      </trkpt>
      <trkpt lat="48.72319" lon="2.50396">
        <ele>91.46</ele>
        <time>2016-07-03T09:48:22Z</time>
      </trkpt>
      <trkpt lat="48.72301" lon="2.50397">
        <ele>91.94</ele>
        <time>2016-07-03T09:48:40Z</time>
      </trkpt>
      <trkpt lat="48.72279" lon="2.50397">
        <ele>93.39</ele>
        <time>2016-07-03T09:49:03Z</time>
      </trkpt>
      <trkpt lat="48.72257" lon="2.50401">
        <ele>93.87</ele>
        <time>2016-07-03T09:49:23Z</time>
      </trkpt>
      <trkpt lat="48.72236" lon="2.50402">
        <ele>94.83</ele>
        <time>2016-07-03T09:49:45Z</time>
      </trkpt>
      <trkpt lat="48.72218" lon="2.50405">
        <ele>94.83</ele>
        <time>2016-07-03T09:49:53Z</time>
      </trkpt>
      <trkpt lat="48.72208" lon="2.50408">
        <ele>95.31</ele>
        <time>2016-07-03T09:50:08Z</time>
      </trkpt>
      <trkpt lat="48.7221" lon="2.50418">
        <ele>95.31</ele>
        <time>2016-07-03T09:50:24Z</time>
      </trkpt>
      <trkpt lat="48.72209" lon="2.50445">
        <ele>96.27</ele>
        <time>2016-07-03T09:50:41Z</time>
      </trkpt>
      <trkpt lat="48.7221" lon="2.50452">
        <ele>97.23</ele>
        <time>2016-07-03T09:50:53Z</time>
      </trkpt>
      <trkpt lat="48.7221" lon="2.5047">
        <ele>98.19</ele>
        <time>2016-07-03T09:51:05Z</time>
      </trkpt>
      <trkpt lat="48.72212" lon="2.50488">
        <ele>99.15</ele>
        <time>2016-07-03T09:51:16Z</time>
      </trkpt>
      <trkpt lat="48.72211" lon="2.50506">
        <ele>99.63</ele>
        <time>2016-07-03T09:51:30Z</time>
      </trkpt>
      <trkpt lat="48.7221" lon="2.50517">
        <ele>100.11</ele>
        <time>2016-07-03T09:51:37Z</time>
      </trkpt>
      <trkpt lat="48.72211" lon="2.50538">
        <ele>100.11</ele>
        <time>2016-07-03T09:51:50Z</time>
      </trkpt>
      <trkpt lat="48.72208" lon="2.50548">
        <ele>100.6</ele>
        <time>2016-07-03T09:51:57Z</time>
      </trkpt>
      <trkpt lat="48.7221" lon="2.50561">
        <ele>101.08</ele>
        <time>2016-07-03T09:52:10Z</time>
      </trkpt>
      <trkpt lat="48.72207" lon="2.50576">
        <ele>101.56</ele>
        <time>2016-07-03T09:52:24Z</time>
      </trkpt>
      <trkpt lat="48.72208" lon="2.50608">
        <ele>101.56</ele>
        <time>2016-07-03T09:52:41Z</time>
      </trkpt>
      <trkpt lat="48.72209" lon="2.50629">
        <ele>102.52</ele>
        <time>2016-07-03T09:52:53Z</time>
      </trkpt>
      <trkpt lat="48.72212" lon="2.50649">
        <ele>102.52</ele>
        <time>2016-07-03T09:53:06Z</time>
      </trkpt>
      <trkpt lat="48.72209" lon="2.50679">
        <ele>103</ele>
        <time>2016-07-03T09:53:22Z</time>
      </trkpt>
      <trkpt lat="48.72208" lon="2.507">
        <ele>103.96</ele>
        <time>2016-07-03T09:53:37Z</time>
      </trkpt>
      <trkpt lat="48.7221" lon="2.50727">
        <ele>104.44</ele>
        <time>2016-07-03T09:53:54Z</time>
      </trkpt>
      <trkpt lat="48.72212" lon="2.50757">
        <ele>105.88</ele>
        <time>2016-07-03T09:54:13Z</time>
      </trkpt>
      <trkpt lat="48.72211" lon="2.50783">
        <ele>106.36</ele>
        <time>2016-07-03T09:54:27Z</time>
      </trkpt>
      <trkpt lat="48.72209" lon="2.50808">
        <ele>106.84</ele>
        <time>2016-07-03T09:54:43Z</time>
      </trkpt>
      <trkpt lat="48.72209" lon="2.50837">
        <ele>106.84</ele>
        <time>2016-07-03T09:55:00Z</time>
      </trkpt>
      <trkpt lat="48.72212" lon="2.50862">
        <ele>107.32</ele>
        <time>2016-07-03T09:55:16Z</time>
      </trkpt>
      <trkpt lat="48.72211" lon="2.50888">
        <ele>107.81</ele>
        <time>2016-07-03T09:55:31Z</time>
      </trkpt>
      <trkpt lat="48.72215" lon="2.50901">
        <ele>107.81</ele>
        <time>2016-07-03T09:55:41Z</time>
      </trkpt>
      <trkpt lat="48.72226" lon="2.50911">
        <ele>108.29</ele>
        <time>2016-07-03T09:55:56Z</time>
      </trkpt>
      <trkpt lat="48.72234" lon="2.50923">
        <ele>108.29</ele>
        <time>2016-07-03T09:56:09Z</time>
      </trkpt>
      <trkpt lat="48.72244" lon="2.50927">
        <ele>108.77</ele>
        <time>2016-07-03T09:56:23Z</time>
      </trkpt>
      <trkpt lat="48.72257" lon="2.50939">
        <ele>108.77</ele>
        <time>2016-07-03T09:56:40Z</time>
      </trkpt>
      <trkpt lat="48.72268" lon="2.50958">
        <ele>108.77</ele>
        <time>2016-07-03T09:56:58Z</time>
      </trkpt>
      <trkpt lat="48.72282" lon="2.50973">
        <ele>109.25</ele>
        <time>2016-07-03T09:57:14Z</time>
      </trkpt>
      <trkpt lat="48.72276" lon="2.50987">
        <ele>108.77</ele>
        <time>2016-07-03T09:57:27Z</time>
      </trkpt>
      <trkpt lat="48.7227" lon="2.51003">
        <ele>108.77</ele>
        <time>2016-07-03T09:57:40Z</time>
      </trkpt>
      <trkpt lat="48.72262" lon="2.51025">
        <ele>108.29</ele>
        <time>2016-07-03T09:57:58Z</time>
      </trkpt>
      <trkpt lat="48.72258" lon="2.51037">
        <ele>108.29</ele>
        <time>2016-07-03T09:58:08Z</time>
      </trkpt>
      <trkpt lat="48.72246" lon="2.51057">
        <ele>107.81</ele>
        <time>2016-07-03T09:58:27Z</time>
      </trkpt>
      <trkpt lat="48.72242" lon="2.51068">
        <ele>107.81</ele>
        <time>2016-07-03T09:58:37Z</time>
      </trkpt>
      <trkpt lat="48.72249" lon="2.51082">
        <ele>107.81</ele>
        <time>2016-07-03T09:58:52Z</time>
      </trkpt>
      <trkpt lat="48.72248" lon="2.51091">
        <ele>107.81</ele>
        <time>2016-07-03T09:59:08Z</time>
      </trkpt>
      <trkpt lat="48.72249" lon="2.51098">
        <ele>107.32</ele>
        <time>2016-07-03T09:59:20Z</time>
      </trkpt>
      <trkpt lat="48.72253" lon="2.51106">
        <ele>107.81</ele>
        <time>2016-07-03T09:59:33Z</time>
      </trkpt>
      <trkpt lat="48.72264" lon="2.51114">
        <ele>107.81</ele>
        <time>2016-07-03T09:59:46Z</time>
      </trkpt>
      <trkpt lat="48.72275" lon="2.51135">
        <ele>107.81</ele>
        <time>2016-07-03T10:00:02Z</time>
      </trkpt>
      <trkpt lat="48.72292" lon="2.5116">
        <ele>108.29</ele>
        <time>2016-07-03T10:00:22Z</time>
      </trkpt>
      <trkpt lat="48.72308" lon="2.51182">
        <ele>108.29</ele>
        <time>2016-07-03T10:00:42Z</time>
      </trkpt>
      <trkpt lat="48.72322" lon="2.51198">
        <ele>108.77</ele>
        <time>2016-07-03T10:00:59Z</time>
      </trkpt>
      <trkpt lat="48.72337" lon="2.51219">
        <ele>108.77</ele>
        <time>2016-07-03T10:01:17Z</time>
      </trkpt>
      <trkpt lat="48.72353" lon="2.51238">
        <ele>108.77</ele>
        <time>2016-07-03T10:01:34Z</time>
      </trkpt>
      <trkpt lat="48.72363" lon="2.51254">
        <ele>108.29</ele>
        <time>2016-07-03T10:01:48Z</time>
      </trkpt>
      <trkpt lat="48.72374" lon="2.51272">
        <ele>108.29</ele>
        <time>2016-07-03T10:02:05Z</time>
      </trkpt>
      <trkpt lat="48.72389" lon="2.51292">
        <ele>107.81</ele>
        <time>2016-07-03T10:02:21Z</time>
      </trkpt>
      <trkpt lat="48.72401" lon="2.51309">
        <ele>107.81</ele>
        <time>2016-07-03T10:02:37Z</time>
      </trkpt>
      <trkpt lat="48.72415" lon="2.51326">
        <ele>107.81</ele>
        <time>2016-07-03T10:02:54Z</time>
      </trkpt>
      <trkpt lat="48.72431" lon="2.51347">
        <ele>107.81</ele>
        <time>2016-07-03T10:03:15Z</time>
      </trkpt>
      <trkpt lat="48.72449" lon="2.51367">
        <ele>107.81</ele>
        <time>2016-07-03T10:03:33Z</time>
      </trkpt>
      <trkpt lat="48.72464" lon="2.51384">
        <ele>107.81</ele>
        <time>2016-07-03T10:03:49Z</time>
      </trkpt>
      <trkpt lat="48.72481" lon="2.51402">
        <ele>107.81</ele>
        <time>2016-07-03T10:04:09Z</time>
      </trkpt>
      <trkpt lat="48.72491" lon="2.51414">
        <ele>107.81</ele>
        <time>2016-07-03T10:04:29Z</time>
      </trkpt>
      <trkpt lat="48.72505" lon="2.51437">
        <ele>107.81</ele>
        <time>2016-07-03T10:04:45Z</time>
      </trkpt>
      <trkpt lat="48.72517" lon="2.51455">
        <ele>107.81</ele>
        <time>2016-07-03T10:05:01Z</time>
      </trkpt>
      <trkpt lat="48.72531" lon="2.5147">
        <ele>107.81</ele>
        <time>2016-07-03T10:05:16Z</time>
      </trkpt>
      <trkpt lat="48.72538" lon="2.51479">
        <ele>107.81</ele>
        <time>2016-07-03T10:05:36Z</time>
      </trkpt>
      <trkpt lat="48.72555" lon="2.51501">
        <ele>107.32</ele>
        <time>2016-07-03T10:05:55Z</time>
      </trkpt>
      <trkpt lat="48.72569" lon="2.51521">
        <ele>106.84</ele>
        <time>2016-07-03T10:06:13Z</time>
      </trkpt>
      <trkpt lat="48.72587" lon="2.51546">
        <ele>106.84</ele>
        <time>2016-07-03T10:06:33Z</time>
      </trkpt>
      <trkpt lat="48.72597" lon="2.51558">
        <ele>106.84</ele>
        <time>2016-07-03T10:06:48Z</time>
      </trkpt>
      <trkpt lat="48.72602" lon="2.51561">
        <ele>106.36</ele>
        <time>2016-07-03T10:07:05Z</time>
      </trkpt>
      <trkpt lat="48.72604" lon="2.51562">
        <ele>106.36</ele>
        <time>2016-07-03T10:07:25Z</time>
      </trkpt>
      <trkpt lat="48.72604" lon="2.51563">
        <ele>106.36</ele>
        <time>2016-07-03T10:07:46Z</time>
      </trkpt>
      <trkpt lat="48.72609" lon="2.51559">
        <ele>105.88</ele>
        <time>2016-07-03T10:08:12Z</time>
      </trkpt>
      <trkpt lat="48.726" lon="2.5156">
        <ele>106.36</ele>
        <time>2016-07-03T10:08:37Z</time>
      </trkpt>
      <trkpt lat="48.72596" lon="2.51576">
        <ele>105.88</ele>
        <time>2016-07-03T10:08:56Z</time>
      </trkpt>
      <trkpt lat="48.72597" lon="2.51591">
        <ele>105.88</ele>
        <time>2016-07-03T10:09:10Z</time>
      </trkpt>
      <trkpt lat="48.72592" lon="2.51607">
        <ele>105.88</ele>
        <time>2016-07-03T10:09:26Z</time>
      </trkpt>
      <trkpt lat="48.72578" lon="2.51611">
        <ele>105.88</ele>
        <time>2016-07-03T10:09:40Z</time>
      </trkpt>
      <trkpt lat="48.72562" lon="2.51612">
        <ele>105.88</ele>
        <time>2016-07-03T10:09:57Z</time>
      </trkpt>
      <trkpt lat="48.72543" lon="2.51616">
        <ele>105.88</ele>
        <time>2016-07-03T10:10:16Z</time>
      </trkpt>
      <trkpt lat="48.72527" lon="2.51618">
        <ele>105.88</ele>
        <time>2016-07-03T10:10:31Z</time>
      </trkpt>
      <trkpt lat="48.72509" lon="2.51621">
        <ele>105.88</ele>
        <time>2016-07-03T10:10:48Z</time>
      </trkpt>
      <trkpt lat="48.72495" lon="2.51625">
        <ele>104.92</ele>
        <time>2016-07-03T10:11:04Z</time>
      </trkpt>
      <trkpt lat="48.7248" lon="2.51627">
        <ele>104.92</ele>
        <time>2016-07-03T10:11:19Z</time>
      </trkpt>
      <trkpt lat="48.72463" lon="2.51629">
        <ele>103.96</ele>
        <time>2016-07-03T10:11:34Z</time>
      </trkpt>
      <trkpt lat="48.72442" lon="2.51632">
        <ele>103.48</ele>
        <time>2016-07-03T10:11:52Z</time>
      </trkpt>
      <trkpt lat="48.7242" lon="2.51634">
        <ele>102.52</ele>
        <time>2016-07-03T10:12:10Z</time>
      </trkpt>
      <trkpt lat="48.72408" lon="2.5163">
        <ele>102.04</ele>
        <time>2016-07-03T10:12:29Z</time>
      </trkpt>
      <trkpt lat="48.72397" lon="2.51635">
        <ele>101.08</ele>
        <time>2016-07-03T10:12:47Z</time>
      </trkpt>
      <trkpt lat="48.72376" lon="2.51643">
        <ele>99.63</ele>
        <time>2016-07-03T10:13:04Z</time>
      </trkpt>
      <trkpt lat="48.72358" lon="2.51648">
        <ele>98.67</ele>
        <time>2016-07-03T10:13:22Z</time>
      </trkpt>
      <trkpt lat="48.72344" lon="2.5165">
        <ele>97.23</ele>
        <time>2016-07-03T10:13:36Z</time>
      </trkpt>
      <trkpt lat="48.7232" lon="2.51653">
        <ele>96.75</ele>
        <time>2016-07-03T10:13:54Z</time>
      </trkpt>
      <trkpt lat="48.72301" lon="2.51657">
        <ele>96.27</ele>
        <time>2016-07-03T10:14:09Z</time>
      </trkpt>
      <trkpt lat="48.72283" lon="2.51656">
        <ele>95.79</ele>
        <time>2016-07-03T10:14:23Z</time>
      </trkpt>
      <trkpt lat="48.72259" lon="2.51663">
        <ele>94.83</ele>
        <time>2016-07-03T10:14:42Z</time>
      </trkpt>
      <trkpt lat="48.72241" lon="2.51665">
        <ele>94.83</ele>
        <time>2016-07-03T10:14:58Z</time>
      </trkpt>
      <trkpt lat="48.72228" lon="2.51675">
        <ele>94.35</ele>
        <time>2016-07-03T10:15:16Z</time>
      </trkpt>
      <trkpt lat="48.72212" lon="2.51674">
        <ele>93.87</ele>
        <time>2016-07-03T10:15:33Z</time>
      </trkpt>
      <trkpt lat="48.72202" lon="2.51673">
        <ele>93.39</ele>
        <time>2016-07-03T10:15:46Z</time>
      </trkpt>
      <trkpt lat="48.72185" lon="2.51676">
        <ele>92.42</ele>
        <time>2016-07-03T10:16:05Z</time>
      </trkpt>
      <trkpt lat="48.72165" lon="2.51679">
        <ele>91.46</ele>
        <time>2016-07-03T10:16:24Z</time>
      </trkpt>
      <trkpt lat="48.72146" lon="2.5168">
        <ele>90.5</ele>
        <time>2016-07-03T10:16:39Z</time>
      </trkpt>
      <trkpt lat="48.72122" lon="2.51685">
        <ele>90.02</ele>
        <time>2016-07-03T10:16:57Z</time>
      </trkpt>
      <trkpt lat="48.72102" lon="2.51689">
        <ele>89.06</ele>
        <time>2016-07-03T10:17:15Z</time>
      </trkpt>
      <trkpt lat="48.72083" lon="2.51689">
        <ele>88.58</ele>
        <time>2016-07-03T10:17:31Z</time>
      </trkpt>
      <trkpt lat="48.72062" lon="2.51692">
        <ele>88.58</ele>
        <time>2016-07-03T10:17:47Z</time>
      </trkpt>
      <trkpt lat="48.72044" lon="2.51693">
        <ele>88.1</ele>
        <time>2016-07-03T10:18:05Z</time>
      </trkpt>
      <trkpt lat="48.72026" lon="2.51699">
        <ele>87.62</ele>
        <time>2016-07-03T10:18:21Z</time>
      </trkpt>
      <trkpt lat="48.72018" lon="2.517">
        <ele>87.62</ele>
        <time>2016-07-03T10:18:29Z</time>
      </trkpt>
      <trkpt lat="48.72" lon="2.51702">
        <ele>87.14</ele>
        <time>2016-07-03T10:18:45Z</time>
      </trkpt>
      <trkpt lat="48.71986" lon="2.51705">
        <ele>86.66</ele>
        <time>2016-07-03T10:18:56Z</time>
      </trkpt>
      <trkpt lat="48.71967" lon="2.51708">
        <ele>86.66</ele>
        <time>2016-07-03T10:19:12Z</time>
      </trkpt>
      <trkpt lat="48.71948" lon="2.51712">
        <ele>86.66</ele>
        <time>2016-07-03T10:19:28Z</time>
      </trkpt>
      <trkpt lat="48.71933" lon="2.51715">
        <ele>86.18</ele>
        <time>2016-07-03T10:19:42Z</time>
      </trkpt>
      <trkpt lat="48.71914" lon="2.51719">
        <ele>85.69</ele>
        <time>2016-07-03T10:19:58Z</time>
      </trkpt>
      <trkpt lat="48.71895" lon="2.51718">
        <ele>85.21</ele>
        <time>2016-07-03T10:20:13Z</time>
      </trkpt>
      <trkpt lat="48.71889" lon="2.51718">
        <ele>85.21</ele>
        <time>2016-07-03T10:20:27Z</time>
      </trkpt>
      <trkpt lat="48.71889" lon="2.51717">
        <ele>84.73</ele>
        <time>2016-07-03T10:20:47Z</time>
      </trkpt>
      <trkpt lat="48.71887" lon="2.51724">
        <ele>85.21</ele>
        <time>2016-07-03T10:21:09Z</time>
      </trkpt>
      <trkpt lat="48.71885" lon="2.51721">
        <ele>85.69</ele>
        <time>2016-07-03T10:21:30Z</time>
      </trkpt>
      <trkpt lat="48.7188" lon="2.51721">
        <ele>85.69</ele>
        <time>2016-07-03T10:21:46Z</time>
      </trkpt>
      <trkpt lat="48.71865" lon="2.51724">
        <ele>85.69</ele>
        <time>2016-07-03T10:22:02Z</time>
      </trkpt>
      <trkpt lat="48.71856" lon="2.51727">
        <ele>85.69</ele>
        <time>2016-07-03T10:22:17Z</time>
      </trkpt>
      <trkpt lat="48.71853" lon="2.51728">
        <ele>85.69</ele>
        <time>2016-07-03T10:22:27Z</time>
      </trkpt>
      <trkpt lat="48.71841" lon="2.51729">
        <ele>85.69</ele>
        <time>2016-07-03T10:22:45Z</time>
      </trkpt>
      <trkpt lat="48.71838" lon="2.51728">
        <ele>85.21</ele>
        <time>2016-07-03T10:23:10Z</time>
      </trkpt>
      <trkpt lat="48.71837" lon="2.51733">
        <ele>85.69</ele>
        <time>2016-07-03T10:23:29Z</time>
      </trkpt>
      <trkpt lat="48.71836" lon="2.51731">
        <ele>85.69</ele>
        <time>2016-07-03T10:23:49Z</time>
      </trkpt>
      <trkpt lat="48.71837" lon="2.51737">
        <ele>86.18</ele>
        <time>2016-07-03T10:24:05Z</time>
      </trkpt>
      <trkpt lat="48.71838" lon="2.51737">
        <ele>85.69</ele>
        <time>2016-07-03T10:24:31Z</time>
      </trkpt>
      <trkpt lat="48.71829" lon="2.51735">
        <ele>85.21</ele>
        <time>2016-07-03T10:24:53Z</time>
      </trkpt>
      <trkpt lat="48.71813" lon="2.51737">
        <ele>85.21</ele>
        <time>2016-07-03T10:25:10Z</time>
      </trkpt>
      <trkpt lat="48.7179" lon="2.51737">
        <ele>84.25</ele>
        <time>2016-07-03T10:25:28Z</time>
      </trkpt>
      <trkpt lat="48.7178" lon="2.51739">
        <ele>83.77</ele>
        <time>2016-07-03T10:25:37Z</time>
      </trkpt>
      <trkpt lat="48.71763" lon="2.51743">
        <ele>83.77</ele>
        <time>2016-07-03T10:25:53Z</time>
      </trkpt>
      <trkpt lat="48.71761" lon="2.51743">
        <ele>83.77</ele>
        <time>2016-07-03T10:25:55Z</time>
      </trkpt>
      <trkpt lat="48.71753" lon="2.51745">
        <ele>83.29</ele>
        <time>2016-07-03T10:26:05Z</time>
      </trkpt>
      <trkpt lat="48.71747" lon="2.51743">
        <ele>83.29</ele>
        <time>2016-07-03T10:26:20Z</time>
      </trkpt>
      <trkpt lat="48.71733" lon="2.51746">
        <ele>82.81</ele>
        <time>2016-07-03T10:26:35Z</time>
      </trkpt>
      <trkpt lat="48.71714" lon="2.51751">
        <ele>82.33</ele>
        <time>2016-07-03T10:26:53Z</time>
      </trkpt>
      <trkpt lat="48.71701" lon="2.51765">
        <ele>81.37</ele>
        <time>2016-07-03T10:27:11Z</time>
      </trkpt>
      <trkpt lat="48.71689" lon="2.51764">
        <ele>80.89</ele>
        <time>2016-07-03T10:27:30Z</time>
      </trkpt>
      <trkpt lat="48.71691" lon="2.51773">
        <ele>80.89</ele>
        <time>2016-07-03T10:27:59Z</time>
      </trkpt>
      <trkpt lat="48.71694" lon="2.51777">
        <ele>81.37</ele>
        <time>2016-07-03T10:28:15Z</time>
      </trkpt>
      <trkpt lat="48.71692" lon="2.51775">
        <ele>81.37</ele>
        <time>2016-07-03T10:28:42Z</time>
      </trkpt>
      <trkpt lat="48.71692" lon="2.51769">
        <ele>81.37</ele>
        <time>2016-07-03T10:29:09Z</time>
      </trkpt>
      <trkpt lat="48.71688" lon="2.51765">
        <ele>81.37</ele>
        <time>2016-07-03T10:29:29Z</time>
      </trkpt>
      <trkpt lat="48.71686" lon="2.51779">
        <ele>81.37</ele>
        <time>2016-07-03T10:29:51Z</time>
      </trkpt>
      <trkpt lat="48.7169" lon="2.5178">
        <ele>81.37</ele>
        <time>2016-07-03T10:30:24Z</time>
      </trkpt>
      <trkpt lat="48.71687" lon="2.51771">
        <ele>81.85</ele>
        <time>2016-07-03T10:30:54Z</time>
      </trkpt>
      <trkpt lat="48.7169" lon="2.51769">
        <ele>82.33</ele>
        <time>2016-07-03T10:31:18Z</time>
      </trkpt>
      <trkpt lat="48.71686" lon="2.51772">
        <ele>81.85</ele>
        <time>2016-07-03T10:31:40Z</time>
      </trkpt>
      <trkpt lat="48.71682" lon="2.51776">
        <ele>81.85</ele>
        <time>2016-07-03T10:31:44Z</time>
      </trkpt>
      <trkpt lat="48.71667" lon="2.51782">
        <ele>81.37</ele>
        <time>2016-07-03T10:32:02Z</time>
      </trkpt>
      <trkpt lat="48.71649" lon="2.51785">
        <ele>80.41</ele>
        <time>2016-07-03T10:32:19Z</time>
      </trkpt>
      <trkpt lat="48.71631" lon="2.51795">
        <ele>78.97</ele>
        <time>2016-07-03T10:32:39Z</time>
      </trkpt>
      <trkpt lat="48.71613" lon="2.51813">
        <ele>78.48</ele>
        <time>2016-07-03T10:32:57Z</time>
      </trkpt>
      <trkpt lat="48.71612" lon="2.51815">
        <ele>78</ele>
        <time>2016-07-03T10:33:17Z</time>
      </trkpt>
      <trkpt lat="48.71601" lon="2.51822">
        <ele>77.52</ele>
        <time>2016-07-03T10:33:37Z</time>
      </trkpt>
      <trkpt lat="48.71598" lon="2.51823">
        <ele>76.56</ele>
        <time>2016-07-03T10:33:40Z</time>
      </trkpt>
      <trkpt lat="48.71592" lon="2.51822">
        <ele>76.56</ele>
        <time>2016-07-03T10:33:44Z</time>
      </trkpt>
      <trkpt lat="48.71585" lon="2.51796">
        <ele>76.08</ele>
        <time>2016-07-03T10:34:00Z</time>
      </trkpt>
      <trkpt lat="48.71583" lon="2.51775">
        <ele>76.08</ele>
        <time>2016-07-03T10:34:13Z</time>
      </trkpt>
      <trkpt lat="48.7158" lon="2.51753">
        <ele>76.08</ele>
        <time>2016-07-03T10:34:27Z</time>
      </trkpt>
      <trkpt lat="48.71573" lon="2.51736">
        <ele>75.6</ele>
        <time>2016-07-03T10:34:42Z</time>
      </trkpt>
      <trkpt lat="48.71567" lon="2.51738">
        <ele>75.12</ele>
        <time>2016-07-03T10:34:51Z</time>
      </trkpt>
      <trkpt lat="48.71551" lon="2.51751">
        <ele>73.2</ele>
        <time>2016-07-03T10:35:07Z</time>
      </trkpt>
      <trkpt lat="48.71541" lon="2.51763">
        <ele>72.24</ele>
        <time>2016-07-03T10:35:20Z</time>
      </trkpt>
      <trkpt lat="48.71534" lon="2.51788">
        <ele>71.27</ele>
        <time>2016-07-03T10:35:36Z</time>
      </trkpt>
      <trkpt lat="48.71534" lon="2.51815">
        <ele>71.27</ele>
        <time>2016-07-03T10:35:52Z</time>
      </trkpt>
      <trkpt lat="48.71523" lon="2.51845">
        <ele>68.39</ele>
        <time>2016-07-03T10:36:12Z</time>
      </trkpt>
      <trkpt lat="48.71508" lon="2.51859">
        <ele>66.47</ele>
        <time>2016-07-03T10:36:27Z</time>
      </trkpt>
      <trkpt lat="48.71491" lon="2.51881">
        <ele>65.03</ele>
        <time>2016-07-03T10:36:45Z</time>
      </trkpt>
      <trkpt lat="48.71475" lon="2.51894">
        <ele>63.58</ele>
        <time>2016-07-03T10:37:06Z</time>
      </trkpt>
      <trkpt lat="48.71464" lon="2.51911">
        <ele>62.14</ele>
        <time>2016-07-03T10:37:21Z</time>
      </trkpt>
      <trkpt lat="48.71454" lon="2.51923">
        <ele>61.18</ele>
        <time>2016-07-03T10:37:32Z</time>
      </trkpt>
      <trkpt lat="48.71446" lon="2.5193">
        <ele>60.7</ele>
        <time>2016-07-03T10:37:40Z</time>
      </trkpt>
      <trkpt lat="48.71428" lon="2.51945">
        <ele>60.22</ele>
        <time>2016-07-03T10:37:58Z</time>
      </trkpt>
      <trkpt lat="48.7142" lon="2.51943">
        <ele>59.74</ele>
        <time>2016-07-03T10:38:07Z</time>
      </trkpt>
      <trkpt lat="48.71396" lon="2.51927">
        <ele>58.3</ele>
        <time>2016-07-03T10:38:27Z</time>
      </trkpt>
      <trkpt lat="48.71388" lon="2.51915">
        <ele>57.34</ele>
        <time>2016-07-03T10:38:36Z</time>
      </trkpt>
      <trkpt lat="48.71382" lon="2.51888">
        <ele>54.93</ele>
        <time>2016-07-03T10:38:55Z</time>
      </trkpt>
      <trkpt lat="48.71382" lon="2.51886">
        <ele>53.97</ele>
        <time>2016-07-03T10:39:11Z</time>
      </trkpt>
      <trkpt lat="48.71377" lon="2.51869">
        <ele>51.09</ele>
        <time>2016-07-03T10:39:27Z</time>
      </trkpt>
      <trkpt lat="48.71373" lon="2.51853">
        <ele>48.68</ele>
        <time>2016-07-03T10:39:40Z</time>
      </trkpt>
      <trkpt lat="48.71367" lon="2.51842">
        <ele>47.72</ele>
        <time>2016-07-03T10:39:56Z</time>
      </trkpt>
      <trkpt lat="48.71361" lon="2.51829">
        <ele>47.24</ele>
        <time>2016-07-03T10:40:10Z</time>
      </trkpt>
      <trkpt lat="48.71357" lon="2.51817">
        <ele>47.24</ele>
        <time>2016-07-03T10:40:26Z</time>
      </trkpt>
      <trkpt lat="48.7136" lon="2.51813">
        <ele>46.76</ele>
        <time>2016-07-03T10:40:42Z</time>
      </trkpt>
      <trkpt lat="48.71359" lon="2.51799">
        <ele>46.28</ele>
        <time>2016-07-03T10:41:05Z</time>
      </trkpt>
      <trkpt lat="48.71358" lon="2.51804">
        <ele>46.28</ele>
        <time>2016-07-03T10:41:34Z</time>
      </trkpt>
      <trkpt lat="48.71361" lon="2.51819">
        <ele>46.28</ele>
        <time>2016-07-03T10:42:05Z</time>
      </trkpt>
      <trkpt lat="48.71361" lon="2.51815">
        <ele>46.28</ele>
        <time>2016-07-03T10:42:26Z</time>
      </trkpt>
      <trkpt lat="48.71363" lon="2.51798">
        <ele>46.28</ele>
        <time>2016-07-03T10:42:39Z</time>
      </trkpt>
      <trkpt lat="48.71368" lon="2.5178">
        <ele>46.28</ele>
        <time>2016-07-03T10:42:57Z</time>
      </trkpt>
      <trkpt lat="48.71363" lon="2.51775">
        <ele>46.28</ele>
        <time>2016-07-03T10:43:13Z</time>
      </trkpt>
      <trkpt lat="48.7136" lon="2.51758">
        <ele>46.28</ele>
        <time>2016-07-03T10:43:26Z</time>
      </trkpt>
      <trkpt lat="48.71358" lon="2.51738">
        <ele>46.28</ele>
        <time>2016-07-03T10:43:42Z</time>
      </trkpt>
      <trkpt lat="48.71347" lon="2.51713">
        <ele>46.28</ele>
        <time>2016-07-03T10:43:59Z</time>
      </trkpt>
      <trkpt lat="48.71341" lon="2.51691">
        <ele>45.32</ele>
        <time>2016-07-03T10:44:20Z</time>
      </trkpt>
      <trkpt lat="48.71334" lon="2.51678">
        <ele>45.32</ele>
        <time>2016-07-03T10:44:35Z</time>
      </trkpt>
      <trkpt lat="48.71324" lon="2.5166">
        <ele>45.32</ele>
        <time>2016-07-03T10:44:52Z</time>
      </trkpt>
      <trkpt lat="48.71316" lon="2.51648">
        <ele>44.84</ele>
        <time>2016-07-03T10:45:12Z</time>
      </trkpt>
      <trkpt lat="48.71311" lon="2.51627">
        <ele>44.84</ele>
        <time>2016-07-03T10:45:29Z</time>
      </trkpt>
      <trkpt lat="48.71301" lon="2.51607">
        <ele>44.84</ele>
        <time>2016-07-03T10:45:46Z</time>
      </trkpt>
      <trkpt lat="48.71296" lon="2.51584">
        <ele>44.36</ele>
        <time>2016-07-03T10:46:03Z</time>
      </trkpt>
      <trkpt lat="48.71291" lon="2.5156">
        <ele>44.36</ele>
        <time>2016-07-03T10:46:25Z</time>
      </trkpt>
      <trkpt lat="48.71292" lon="2.51545">
        <ele>44.36</ele>
        <time>2016-07-03T10:46:42Z</time>
      </trkpt>
      <trkpt lat="48.71284" lon="2.51523">
        <ele>44.36</ele>
        <time>2016-07-03T10:47:01Z</time>
      </trkpt>
      <trkpt lat="48.71279" lon="2.515">
        <ele>44.36</ele>
        <time>2016-07-03T10:47:18Z</time>
      </trkpt>
      <trkpt lat="48.71274" lon="2.51474">
        <ele>44.36</ele>
        <time>2016-07-03T10:47:38Z</time>
      </trkpt>
      <trkpt lat="48.71267" lon="2.51459">
        <ele>43.88</ele>
        <time>2016-07-03T10:47:56Z</time>
      </trkpt>
      <trkpt lat="48.71263" lon="2.51446">
        <ele>43.88</ele>
        <time>2016-07-03T10:48:11Z</time>
      </trkpt>
      <trkpt lat="48.71254" lon="2.51429">
        <ele>43.4</ele>
        <time>2016-07-03T10:48:28Z</time>
      </trkpt>
      <trkpt lat="48.71249" lon="2.51405">
        <ele>42.44</ele>
        <time>2016-07-03T10:48:46Z</time>
      </trkpt>
      <trkpt lat="48.71253" lon="2.51405">
        <ele>42.44</ele>
        <time>2016-07-03T10:49:08Z</time>
      </trkpt>
      <trkpt lat="48.71247" lon="2.51388">
        <ele>42.44</ele>
        <time>2016-07-03T10:49:30Z</time>
      </trkpt>
      <trkpt lat="48.7124" lon="2.51366">
        <ele>41.95</ele>
        <time>2016-07-03T10:49:47Z</time>
      </trkpt>
      <trkpt lat="48.71244" lon="2.51345">
        <ele>42.44</ele>
        <time>2016-07-03T10:50:01Z</time>
      </trkpt>
      <trkpt lat="48.71252" lon="2.51319">
        <ele>41.47</ele>
        <time>2016-07-03T10:50:21Z</time>
      </trkpt>
      <trkpt lat="48.7126" lon="2.51304">
        <ele>41.95</ele>
        <time>2016-07-03T10:50:38Z</time>
      </trkpt>
      <trkpt lat="48.71275" lon="2.51283">
        <ele>43.4</ele>
        <time>2016-07-03T10:50:56Z</time>
      </trkpt>
      <trkpt lat="48.71275" lon="2.51245">
        <ele>40.99</ele>
        <time>2016-07-03T10:51:18Z</time>
      </trkpt>
      <trkpt lat="48.71274" lon="2.51219">
        <ele>40.99</ele>
        <time>2016-07-03T10:51:35Z</time>
      </trkpt>
      <trkpt lat="48.71276" lon="2.51199">
        <ele>40.51</ele>
        <time>2016-07-03T10:51:52Z</time>
      </trkpt>
      <trkpt lat="48.71272" lon="2.51187">
        <ele>40.99</ele>
        <time>2016-07-03T10:52:08Z</time>
      </trkpt>
      <trkpt lat="48.71272" lon="2.51195">
        <ele>40.99</ele>
        <time>2016-07-03T10:52:30Z</time>
      </trkpt>
      <trkpt lat="48.71274" lon="2.51167">
        <ele>40.51</ele>
        <time>2016-07-03T10:52:47Z</time>
      </trkpt>
      <trkpt lat="48.71268" lon="2.5117">
        <ele>40.51</ele>
        <time>2016-07-03T10:53:12Z</time>
      </trkpt>
      <trkpt lat="48.71272" lon="2.51155">
        <ele>40.51</ele>
        <time>2016-07-03T10:53:33Z</time>
      </trkpt>
      <trkpt lat="48.71272" lon="2.5116">
        <ele>40.51</ele>
        <time>2016-07-03T10:54:00Z</time>
      </trkpt>
      <trkpt lat="48.71271" lon="2.51136">
        <ele>40.51</ele>
        <time>2016-07-03T10:54:19Z</time>
      </trkpt>
      <trkpt lat="48.71268" lon="2.51115">
        <ele>40.03</ele>
        <time>2016-07-03T10:54:37Z</time>
      </trkpt>
      <trkpt lat="48.71262" lon="2.51115">
        <ele>40.51</ele>
        <time>2016-07-03T10:54:55Z</time>
      </trkpt>
      <trkpt lat="48.71264" lon="2.51115">
        <ele>40.51</ele>
        <time>2016-07-03T10:55:13Z</time>
      </trkpt>
      <trkpt lat="48.71261" lon="2.51083">
        <ele>40.03</ele>
        <time>2016-07-03T10:55:33Z</time>
      </trkpt>
      <trkpt lat="48.71257" lon="2.51056">
        <ele>40.03</ele>
        <time>2016-07-03T10:55:48Z</time>
      </trkpt>
      <trkpt lat="48.71255" lon="2.51032">
        <ele>40.51</ele>
        <time>2016-07-03T10:56:06Z</time>
      </trkpt>
      <trkpt lat="48.71253" lon="2.51013">
        <ele>40.03</ele>
        <time>2016-07-03T10:56:20Z</time>
      </trkpt>
      <trkpt lat="48.7125" lon="2.50998">
        <ele>39.55</ele>
        <time>2016-07-03T10:56:33Z</time>
      </trkpt>
      <trkpt lat="48.71251" lon="2.50974">
        <ele>40.03</ele>
        <time>2016-07-03T10:56:48Z</time>
      </trkpt>
      <trkpt lat="48.71248" lon="2.50954">
        <ele>39.55</ele>
        <time>2016-07-03T10:57:06Z</time>
      </trkpt>
      <trkpt lat="48.7124" lon="2.50939">
        <ele>39.55</ele>
        <time>2016-07-03T10:57:20Z</time>
      </trkpt>
      <trkpt lat="48.71243" lon="2.50916">
        <ele>39.07</ele>
        <time>2016-07-03T10:57:35Z</time>
      </trkpt>
      <trkpt lat="48.71241" lon="2.50881">
        <ele>39.55</ele>
        <time>2016-07-03T10:57:52Z</time>
      </trkpt>
      <trkpt lat="48.71236" lon="2.50855">
        <ele>38.59</ele>
        <time>2016-07-03T10:58:06Z</time>
      </trkpt>
      <trkpt lat="48.71231" lon="2.50832">
        <ele>38.59</ele>
        <time>2016-07-03T10:58:21Z</time>
      </trkpt>
      <trkpt lat="48.71224" lon="2.5081">
        <ele>38.59</ele>
        <time>2016-07-03T10:58:36Z</time>
      </trkpt>
      <trkpt lat="48.71217" lon="2.50789">
        <ele>39.55</ele>
        <time>2016-07-03T10:58:55Z</time>
      </trkpt>
      <trkpt lat="48.71204" lon="2.50786">
        <ele>39.07</ele>
        <time>2016-07-03T10:59:12Z</time>
      </trkpt>
      <trkpt lat="48.71203" lon="2.50759">
        <ele>39.07</ele>
        <time>2016-07-03T10:59:33Z</time>
      </trkpt>
      <trkpt lat="48.71185" lon="2.50745">
        <ele>38.11</ele>
        <time>2016-07-03T10:59:49Z</time>
      </trkpt>
      <trkpt lat="48.71173" lon="2.50726">
        <ele>37.15</ele>
        <time>2016-07-03T11:00:03Z</time>
      </trkpt>
      <trkpt lat="48.7117" lon="2.50703">
        <ele>36.19</ele>
        <time>2016-07-03T11:00:17Z</time>
      </trkpt>
      <trkpt lat="48.71166" lon="2.50687">
        <ele>36.19</ele>
        <time>2016-07-03T11:00:31Z</time>
      </trkpt>
      <trkpt lat="48.71164" lon="2.50666">
        <ele>35.71</ele>
        <time>2016-07-03T11:00:45Z</time>
      </trkpt>
      <trkpt lat="48.71163" lon="2.5063">
        <ele>35.71</ele>
        <time>2016-07-03T11:00:59Z</time>
      </trkpt>
      <trkpt lat="48.7116" lon="2.50605">
        <ele>35.71</ele>
        <time>2016-07-03T11:01:15Z</time>
      </trkpt>
      <trkpt lat="48.71155" lon="2.5058">
        <ele>35.71</ele>
        <time>2016-07-03T11:01:29Z</time>
      </trkpt>
      <trkpt lat="48.71141" lon="2.5056">
        <ele>35.71</ele>
        <time>2016-07-03T11:01:46Z</time>
      </trkpt>
      <trkpt lat="48.71127" lon="2.50541">
        <ele>35.71</ele>
        <time>2016-07-03T11:02:05Z</time>
      </trkpt>
      <trkpt lat="48.71118" lon="2.50528">
        <ele>35.23</ele>
        <time>2016-07-03T11:02:18Z</time>
      </trkpt>
      <trkpt lat="48.71111" lon="2.50524">
        <ele>35.23</ele>
        <time>2016-07-03T11:02:34Z</time>
      </trkpt>
      <trkpt lat="48.71102" lon="2.50503">
        <ele>35.23</ele>
        <time>2016-07-03T11:02:54Z</time>
      </trkpt>
      <trkpt lat="48.71093" lon="2.50477">
        <ele>34.74</ele>
        <time>2016-07-03T11:03:13Z</time>
      </trkpt>
      <trkpt lat="48.71087" lon="2.50449">
        <ele>34.26</ele>
        <time>2016-07-03T11:03:31Z</time>
      </trkpt>
      <trkpt lat="48.71086" lon="2.50434">
        <ele>35.23</ele>
        <time>2016-07-03T11:03:45Z</time>
      </trkpt>
      <trkpt lat="48.7108" lon="2.50426">
        <ele>34.74</ele>
        <time>2016-07-03T11:03:56Z</time>
      </trkpt>
      <trkpt lat="48.71072" lon="2.50403">
        <ele>35.23</ele>
        <time>2016-07-03T11:04:13Z</time>
      </trkpt>
      <trkpt lat="48.71072" lon="2.50391">
        <ele>35.71</ele>
        <time>2016-07-03T11:04:27Z</time>
      </trkpt>
      <trkpt lat="48.71068" lon="2.50376">
        <ele>35.23</ele>
        <time>2016-07-03T11:04:42Z</time>
      </trkpt>
      <trkpt lat="48.7106" lon="2.50366">
        <ele>35.23</ele>
        <time>2016-07-03T11:04:58Z</time>
      </trkpt>
      <trkpt lat="48.71059" lon="2.50357">
        <ele>35.23</ele>
        <time>2016-07-03T11:05:18Z</time>
      </trkpt>
      <trkpt lat="48.71062" lon="2.50354">
        <ele>34.74</ele>
        <time>2016-07-03T11:05:36Z</time>
      </trkpt>
      <trkpt lat="48.71063" lon="2.50337">
        <ele>34.74</ele>
        <time>2016-07-03T11:05:49Z</time>
      </trkpt>
      <trkpt lat="48.71058" lon="2.50318">
        <ele>35.23</ele>
        <time>2016-07-03T11:06:04Z</time>
      </trkpt>
      <trkpt lat="48.7105" lon="2.50312">
        <ele>34.74</ele>
        <time>2016-07-03T11:06:16Z</time>
      </trkpt>
      <trkpt lat="48.71049" lon="2.5031">
        <ele>34.74</ele>
        <time>2016-07-03T11:06:19Z</time>
      </trkpt>
      <trkpt lat="48.71035" lon="2.5031">
        <ele>34.74</ele>
        <time>2016-07-03T11:06:33Z</time>
      </trkpt>
      <trkpt lat="48.71023" lon="2.50301">
        <ele>34.74</ele>
        <time>2016-07-03T11:06:46Z</time>
      </trkpt>
      <trkpt lat="48.7102" lon="2.50295">
        <ele>34.74</ele>
        <time>2016-07-03T11:06:51Z</time>
      </trkpt>
      <trkpt lat="48.71017" lon="2.50291">
        <ele>34.74</ele>
        <time>2016-07-03T11:06:56Z</time>
      </trkpt>
      <trkpt lat="48.71008" lon="2.5027">
        <ele>37.63</ele>
        <time>2016-07-03T11:23:37Z</time>
      </trkpt>
      <trkpt lat="48.71006" lon="2.50269">
        <ele>38.11</ele>
        <time>2016-07-03T11:24:14Z</time>
      </trkpt>
      <trkpt lat="48.71003" lon="2.50265">
        <ele>41.95</ele>
        <time>2016-07-03T11:50:57Z</time>
      </trkpt>
      <trkpt lat="48.70999" lon="2.50249">
        <ele>41.47</ele>
        <time>2016-07-03T11:51:14Z</time>
      </trkpt>
      <trkpt lat="48.70996" lon="2.5024">
        <ele>41.47</ele>
        <time>2016-07-03T11:51:29Z</time>
      </trkpt>
      <trkpt lat="48.70992" lon="2.5023">
        <ele>41.47</ele>
        <time>2016-07-03T11:51:44Z</time>
      </trkpt>
      <trkpt lat="48.70987" lon="2.50218">
        <ele>41.95</ele>
        <time>2016-07-03T11:51:59Z</time>
      </trkpt>
      <trkpt lat="48.70981" lon="2.50206">
        <ele>41.95</ele>
        <time>2016-07-03T11:52:17Z</time>
      </trkpt>
      <trkpt lat="48.70973" lon="2.50221">
        <ele>41.95</ele>
        <time>2016-07-03T11:52:38Z</time>
      </trkpt>
      <trkpt lat="48.70958" lon="2.50207">
        <ele>41.95</ele>
        <time>2016-07-03T11:52:54Z</time>
      </trkpt>
      <trkpt lat="48.70954" lon="2.502">
        <ele>41.95</ele>
        <time>2016-07-03T11:53:04Z</time>
      </trkpt>
      <trkpt lat="48.70946" lon="2.50189">
        <ele>41.47</ele>
        <time>2016-07-03T11:53:17Z</time>
      </trkpt>
      <trkpt lat="48.70941" lon="2.50168">
        <ele>41.47</ele>
        <time>2016-07-03T11:53:32Z</time>
      </trkpt>
      <trkpt lat="48.70934" lon="2.50152">
        <ele>41.95</ele>
        <time>2016-07-03T11:53:48Z</time>
      </trkpt>
      <trkpt lat="48.70937" lon="2.50138">
        <ele>41.95</ele>
        <time>2016-07-03T11:54:02Z</time>
      </trkpt>
      <trkpt lat="48.70941" lon="2.50127">
        <ele>41.95</ele>
        <time>2016-07-03T11:54:13Z</time>
      </trkpt>
      <trkpt lat="48.70943" lon="2.50123">
        <ele>41.95</ele>
        <time>2016-07-03T11:54:15Z</time>
      </trkpt>
      <trkpt lat="48.70951" lon="2.50109">
        <ele>42.44</ele>
        <time>2016-07-03T11:54:30Z</time>
      </trkpt>
      <trkpt lat="48.70945" lon="2.50097">
        <ele>41.95</ele>
        <time>2016-07-03T11:54:43Z</time>
      </trkpt>
      <trkpt lat="48.70937" lon="2.50079">
        <ele>41.95</ele>
        <time>2016-07-03T11:54:56Z</time>
      </trkpt>
      <trkpt lat="48.7093" lon="2.5006">
        <ele>42.44</ele>
        <time>2016-07-03T11:55:11Z</time>
      </trkpt>
      <trkpt lat="48.70924" lon="2.50043">
        <ele>41.95</ele>
        <time>2016-07-03T11:55:26Z</time>
      </trkpt>
      <trkpt lat="48.70924" lon="2.50017">
        <ele>41.95</ele>
        <time>2016-07-03T11:55:48Z</time>
      </trkpt>
      <trkpt lat="48.70923" lon="2.50005">
        <ele>41.95</ele>
        <time>2016-07-03T11:56:04Z</time>
      </trkpt>
      <trkpt lat="48.70922" lon="2.49986">
        <ele>42.44</ele>
        <time>2016-07-03T11:56:17Z</time>
      </trkpt>
      <trkpt lat="48.70922" lon="2.49984">
        <ele>42.92</ele>
        <time>2016-07-03T11:56:19Z</time>
      </trkpt>
      <trkpt lat="48.70934" lon="2.49962">
        <ele>42.92</ele>
        <time>2016-07-03T11:56:33Z</time>
      </trkpt>
      <trkpt lat="48.7093" lon="2.49948">
        <ele>42.92</ele>
        <time>2016-07-03T11:56:45Z</time>
      </trkpt>
      <trkpt lat="48.70941" lon="2.49935">
        <ele>43.4</ele>
        <time>2016-07-03T11:56:59Z</time>
      </trkpt>
      <trkpt lat="48.70949" lon="2.49927">
        <ele>43.4</ele>
        <time>2016-07-03T11:57:08Z</time>
      </trkpt>
      <trkpt lat="48.70952" lon="2.49924">
        <ele>43.88</ele>
        <time>2016-07-03T11:57:11Z</time>
      </trkpt>
      <trkpt lat="48.70953" lon="2.49923">
        <ele>43.4</ele>
        <time>2016-07-03T11:57:13Z</time>
      </trkpt>
      <trkpt lat="48.70966" lon="2.49913">
        <ele>43.88</ele>
        <time>2016-07-03T11:57:29Z</time>
      </trkpt>
      <trkpt lat="48.70981" lon="2.49902">
        <ele>43.4</ele>
        <time>2016-07-03T11:57:47Z</time>
      </trkpt>
      <trkpt lat="48.70982" lon="2.49896">
        <ele>43.4</ele>
        <time>2016-07-03T11:57:54Z</time>
      </trkpt>
      <trkpt lat="48.7098" lon="2.49891">
        <ele>43.4</ele>
        <time>2016-07-03T11:57:58Z</time>
      </trkpt>
      <trkpt lat="48.70977" lon="2.49878">
        <ele>42.44</ele>
        <time>2016-07-03T11:58:12Z</time>
      </trkpt>
      <trkpt lat="48.70978" lon="2.49876">
        <ele>42.44</ele>
        <time>2016-07-03T11:58:22Z</time>
      </trkpt>
      <trkpt lat="48.70973" lon="2.49868">
        <ele>42.44</ele>
        <time>2016-07-03T11:58:34Z</time>
      </trkpt>
      <trkpt lat="48.70972" lon="2.49866">
        <ele>41.95</ele>
        <time>2016-07-03T11:58:40Z</time>
      </trkpt>
      <trkpt lat="48.70963" lon="2.49856">
        <ele>41.47</ele>
        <time>2016-07-03T11:58:53Z</time>
      </trkpt>
      <trkpt lat="48.70955" lon="2.49848">
        <ele>40.99</ele>
        <time>2016-07-03T11:59:05Z</time>
      </trkpt>
      <trkpt lat="48.7095" lon="2.49842">
        <ele>40.51</ele>
        <time>2016-07-03T11:59:12Z</time>
      </trkpt>
      <trkpt lat="48.70942" lon="2.49832">
        <ele>40.03</ele>
        <time>2016-07-03T11:59:22Z</time>
      </trkpt>
      <trkpt lat="48.7093" lon="2.49819">
        <ele>40.03</ele>
        <time>2016-07-03T11:59:37Z</time>
      </trkpt>
      <trkpt lat="48.70921" lon="2.49812">
        <ele>40.03</ele>
        <time>2016-07-03T11:59:55Z</time>
      </trkpt>
      <trkpt lat="48.70906" lon="2.49796">
        <ele>40.03</ele>
        <time>2016-07-03T12:00:12Z</time>
      </trkpt>
      <trkpt lat="48.70897" lon="2.49777">
        <ele>39.55</ele>
        <time>2016-07-03T12:00:28Z</time>
      </trkpt>
      <trkpt lat="48.70893" lon="2.49755">
        <ele>38.59</ele>
        <time>2016-07-03T12:00:43Z</time>
      </trkpt>
      <trkpt lat="48.70893" lon="2.49736">
        <ele>38.59</ele>
        <time>2016-07-03T12:01:01Z</time>
      </trkpt>
      <trkpt lat="48.70887" lon="2.49731">
        <ele>37.63</ele>
        <time>2016-07-03T12:01:12Z</time>
      </trkpt>
      <trkpt lat="48.70882" lon="2.49715">
        <ele>36.67</ele>
        <time>2016-07-03T12:01:26Z</time>
      </trkpt>
      <trkpt lat="48.70879" lon="2.4971">
        <ele>35.71</ele>
        <time>2016-07-03T12:01:41Z</time>
      </trkpt>
      <trkpt lat="48.70878" lon="2.49712">
        <ele>35.71</ele>
        <time>2016-07-03T12:01:57Z</time>
      </trkpt>
      <trkpt lat="48.70881" lon="2.49711">
        <ele>35.71</ele>
        <time>2016-07-03T12:02:10Z</time>
      </trkpt>
      <trkpt lat="48.70887" lon="2.49702">
        <ele>37.15</ele>
        <time>2016-07-03T12:02:27Z</time>
      </trkpt>
      <trkpt lat="48.70886" lon="2.49685">
        <ele>37.15</ele>
        <time>2016-07-03T12:02:43Z</time>
      </trkpt>
      <trkpt lat="48.70888" lon="2.49687">
        <ele>37.15</ele>
        <time>2016-07-03T12:02:59Z</time>
      </trkpt>
      <trkpt lat="48.70883" lon="2.49695">
        <ele>37.63</ele>
        <time>2016-07-03T12:03:14Z</time>
      </trkpt>
      <trkpt lat="48.70882" lon="2.49698">
        <ele>37.15</ele>
        <time>2016-07-03T12:03:30Z</time>
      </trkpt>
      <trkpt lat="48.70883" lon="2.49702">
        <ele>37.15</ele>
        <time>2016-07-03T12:03:50Z</time>
      </trkpt>
      <trkpt lat="48.70884" lon="2.49712">
        <ele>37.63</ele>
        <time>2016-07-03T12:04:04Z</time>
      </trkpt>
      <trkpt lat="48.70879" lon="2.4972">
        <ele>36.67</ele>
        <time>2016-07-03T12:04:17Z</time>
      </trkpt>
      <trkpt lat="48.70877" lon="2.49724">
        <ele>36.67</ele>
        <time>2016-07-03T12:04:26Z</time>
      </trkpt>
      <trkpt lat="48.70871" lon="2.49728">
        <ele>36.67</ele>
        <time>2016-07-03T12:04:33Z</time>
      </trkpt>
      <trkpt lat="48.70864" lon="2.4973">
        <ele>36.67</ele>
        <time>2016-07-03T12:04:39Z</time>
      </trkpt>
      <trkpt lat="48.70856" lon="2.49739">
        <ele>36.67</ele>
        <time>2016-07-03T12:04:47Z</time>
      </trkpt>
      <trkpt lat="48.70848" lon="2.49746">
        <ele>36.67</ele>
        <time>2016-07-03T12:05:04Z</time>
      </trkpt>
      <trkpt lat="48.70841" lon="2.49756">
        <ele>38.11</ele>
        <time>2016-07-03T12:05:16Z</time>
      </trkpt>
      <trkpt lat="48.70824" lon="2.49754">
        <ele>37.63</ele>
        <time>2016-07-03T12:05:34Z</time>
      </trkpt>
      <trkpt lat="48.70824" lon="2.49754">
        <ele>37.63</ele>
        <time>2016-07-03T12:05:35Z</time>
      </trkpt>
      <trkpt lat="48.70811" lon="2.49754">
        <ele>38.11</ele>
        <time>2016-07-03T12:05:50Z</time>
      </trkpt>
      <trkpt lat="48.70806" lon="2.4974">
        <ele>37.63</ele>
        <time>2016-07-03T12:06:04Z</time>
      </trkpt>
      <trkpt lat="48.70804" lon="2.49742">
        <ele>37.63</ele>
        <time>2016-07-03T12:06:08Z</time>
      </trkpt>
      <trkpt lat="48.70798" lon="2.4974">
        <ele>37.63</ele>
        <time>2016-07-03T12:06:14Z</time>
      </trkpt>
      <trkpt lat="48.70788" lon="2.4973">
        <ele>38.11</ele>
        <time>2016-07-03T12:06:31Z</time>
      </trkpt>
      <trkpt lat="48.70791" lon="2.49725">
        <ele>38.11</ele>
        <time>2016-07-03T12:06:51Z</time>
      </trkpt>
      <trkpt lat="48.7079" lon="2.49724">
        <ele>37.63</ele>
        <time>2016-07-03T12:07:10Z</time>
      </trkpt>
      <trkpt lat="48.70788" lon="2.49713">
        <ele>38.11</ele>
        <time>2016-07-03T12:07:27Z</time>
      </trkpt>
      <trkpt lat="48.7079" lon="2.49704">
        <ele>38.59</ele>
        <time>2016-07-03T12:07:41Z</time>
      </trkpt>
      <trkpt lat="48.70789" lon="2.49694">
        <ele>38.11</ele>
        <time>2016-07-03T12:08:01Z</time>
      </trkpt>
      <trkpt lat="48.70793" lon="2.49684">
        <ele>37.15</ele>
        <time>2016-07-03T12:08:18Z</time>
      </trkpt>
      <trkpt lat="48.70803" lon="2.49673">
        <ele>37.63</ele>
        <time>2016-07-03T12:08:34Z</time>
      </trkpt>
      <trkpt lat="48.70809" lon="2.49679">
        <ele>37.63</ele>
        <time>2016-07-03T12:08:48Z</time>
      </trkpt>
      <trkpt lat="48.70816" lon="2.49681">
        <ele>37.15</ele>
        <time>2016-07-03T12:09:04Z</time>
      </trkpt>
      <trkpt lat="48.70833" lon="2.49667">
        <ele>36.67</ele>
        <time>2016-07-03T12:09:22Z</time>
      </trkpt>
      <trkpt lat="48.70844" lon="2.49652">
        <ele>36.67</ele>
        <time>2016-07-03T12:09:38Z</time>
      </trkpt>
      <trkpt lat="48.70855" lon="2.49643">
        <ele>36.19</ele>
        <time>2016-07-03T12:09:53Z</time>
      </trkpt>
      <trkpt lat="48.70863" lon="2.49642">
        <ele>35.71</ele>
        <time>2016-07-03T12:10:09Z</time>
      </trkpt>
      <trkpt lat="48.70861" lon="2.49636">
        <ele>35.71</ele>
        <time>2016-07-03T12:10:31Z</time>
      </trkpt>
      <trkpt lat="48.7087" lon="2.49639">
        <ele>36.19</ele>
        <time>2016-07-03T12:10:52Z</time>
      </trkpt>
      <trkpt lat="48.70868" lon="2.49635">
        <ele>35.71</ele>
        <time>2016-07-03T12:11:09Z</time>
      </trkpt>
      <trkpt lat="48.70877" lon="2.49645">
        <ele>35.71</ele>
        <time>2016-07-03T12:11:30Z</time>
      </trkpt>
      <trkpt lat="48.70889" lon="2.49643">
        <ele>35.71</ele>
        <time>2016-07-03T12:11:46Z</time>
      </trkpt>
      <trkpt lat="48.709" lon="2.49641">
        <ele>35.71</ele>
        <time>2016-07-03T12:12:04Z</time>
      </trkpt>
      <trkpt lat="48.70907" lon="2.4964">
        <ele>36.19</ele>
        <time>2016-07-03T12:12:22Z</time>
      </trkpt>
      <trkpt lat="48.70926" lon="2.49643">
        <ele>36.19</ele>
        <time>2016-07-03T12:12:40Z</time>
      </trkpt>
      <trkpt lat="48.70941" lon="2.4964">
        <ele>35.71</ele>
        <time>2016-07-03T12:12:56Z</time>
      </trkpt>
      <trkpt lat="48.70949" lon="2.49637">
        <ele>35.71</ele>
        <time>2016-07-03T12:13:02Z</time>
      </trkpt>
      <trkpt lat="48.70972" lon="2.49634">
        <ele>35.71</ele>
        <time>2016-07-03T12:13:20Z</time>
      </trkpt>
      <trkpt lat="48.70996" lon="2.49624">
        <ele>36.19</ele>
        <time>2016-07-03T12:13:38Z</time>
      </trkpt>
      <trkpt lat="48.71008" lon="2.496">
        <ele>36.19</ele>
        <time>2016-07-03T12:13:56Z</time>
      </trkpt>
      <trkpt lat="48.71015" lon="2.49586">
        <ele>36.19</ele>
        <time>2016-07-03T12:14:08Z</time>
      </trkpt>
      <trkpt lat="48.71018" lon="2.49581">
        <ele>35.71</ele>
        <time>2016-07-03T12:14:13Z</time>
      </trkpt>
      <trkpt lat="48.71027" lon="2.49558">
        <ele>35.71</ele>
        <time>2016-07-03T12:14:28Z</time>
      </trkpt>
      <trkpt lat="48.71036" lon="2.49537">
        <ele>35.23</ele>
        <time>2016-07-03T12:14:44Z</time>
      </trkpt>
      <trkpt lat="48.71048" lon="2.49528">
        <ele>35.71</ele>
        <time>2016-07-03T12:14:58Z</time>
      </trkpt>
      <trkpt lat="48.71058" lon="2.49516">
        <ele>36.19</ele>
        <time>2016-07-03T12:15:12Z</time>
      </trkpt>
      <trkpt lat="48.71061" lon="2.49506">
        <ele>35.71</ele>
        <time>2016-07-03T12:15:28Z</time>
      </trkpt>
      <trkpt lat="48.71071" lon="2.49507">
        <ele>36.19</ele>
        <time>2016-07-03T12:15:40Z</time>
      </trkpt>
      <trkpt lat="48.71083" lon="2.49508">
        <ele>35.71</ele>
        <time>2016-07-03T12:15:54Z</time>
      </trkpt>
      <trkpt lat="48.71085" lon="2.49507">
        <ele>35.71</ele>
        <time>2016-07-03T12:15:56Z</time>
      </trkpt>
      <trkpt lat="48.71105" lon="2.495">
        <ele>35.71</ele>
        <time>2016-07-03T12:16:13Z</time>
      </trkpt>
      <trkpt lat="48.71115" lon="2.49493">
        <ele>35.71</ele>
        <time>2016-07-03T12:16:29Z</time>
      </trkpt>
      <trkpt lat="48.71129" lon="2.49484">
        <ele>35.71</ele>
        <time>2016-07-03T12:16:45Z</time>
      </trkpt>
      <trkpt lat="48.71145" lon="2.49464">
        <ele>35.71</ele>
        <time>2016-07-03T12:17:03Z</time>
      </trkpt>
      <trkpt lat="48.71161" lon="2.49452">
        <ele>35.71</ele>
        <time>2016-07-03T12:17:19Z</time>
      </trkpt>
      <trkpt lat="48.71173" lon="2.49433">
        <ele>35.71</ele>
        <time>2016-07-03T12:17:39Z</time>
      </trkpt>
      <trkpt lat="48.71187" lon="2.49421">
        <ele>35.23</ele>
        <time>2016-07-03T12:17:57Z</time>
      </trkpt>
      <trkpt lat="48.71188" lon="2.4942">
        <ele>35.23</ele>
        <time>2016-07-03T12:17:58Z</time>
      </trkpt>
      <trkpt lat="48.71206" lon="2.49408">
        <ele>35.23</ele>
        <time>2016-07-03T12:18:16Z</time>
      </trkpt>
      <trkpt lat="48.71217" lon="2.49395">
        <ele>35.23</ele>
        <time>2016-07-03T12:18:30Z</time>
      </trkpt>
      <trkpt lat="48.71232" lon="2.49387">
        <ele>35.23</ele>
        <time>2016-07-03T12:18:46Z</time>
      </trkpt>
      <trkpt lat="48.71246" lon="2.49381">
        <ele>35.23</ele>
        <time>2016-07-03T12:19:04Z</time>
      </trkpt>
      <trkpt lat="48.71262" lon="2.49377">
        <ele>35.23</ele>
        <time>2016-07-03T12:19:23Z</time>
      </trkpt>
      <trkpt lat="48.71281" lon="2.49354">
        <ele>35.71</ele>
        <time>2016-07-03T12:19:42Z</time>
      </trkpt>
      <trkpt lat="48.71289" lon="2.49334">
        <ele>35.23</ele>
        <time>2016-07-03T12:19:57Z</time>
      </trkpt>
      <trkpt lat="48.71298" lon="2.49316">
        <ele>35.23</ele>
        <time>2016-07-03T12:20:15Z</time>
      </trkpt>
      <trkpt lat="48.71313" lon="2.49306">
        <ele>35.23</ele>
        <time>2016-07-03T12:20:31Z</time>
      </trkpt>
      <trkpt lat="48.71326" lon="2.493">
        <ele>35.23</ele>
        <time>2016-07-03T12:20:47Z</time>
      </trkpt>
      <trkpt lat="48.71339" lon="2.49307">
        <ele>35.23</ele>
        <time>2016-07-03T12:21:02Z</time>
      </trkpt>
      <trkpt lat="48.7134" lon="2.49309">
        <ele>35.71</ele>
        <time>2016-07-03T12:21:05Z</time>
      </trkpt>
      <trkpt lat="48.71349" lon="2.49318">
        <ele>35.23</ele>
        <time>2016-07-03T12:21:17Z</time>
      </trkpt>
      <trkpt lat="48.71373" lon="2.49299">
        <ele>36.19</ele>
        <time>2016-07-03T12:21:40Z</time>
      </trkpt>
      <trkpt lat="48.71388" lon="2.49277">
        <ele>36.67</ele>
        <time>2016-07-03T12:21:58Z</time>
      </trkpt>
      <trkpt lat="48.71388" lon="2.49267">
        <ele>35.71</ele>
        <time>2016-07-03T12:22:10Z</time>
      </trkpt>
      <trkpt lat="48.71383" lon="2.49237">
        <ele>34.26</ele>
        <time>2016-07-03T12:22:31Z</time>
      </trkpt>
      <trkpt lat="48.71392" lon="2.49196">
        <ele>34.26</ele>
        <time>2016-07-03T12:22:49Z</time>
      </trkpt>
      <trkpt lat="48.71393" lon="2.49172">
        <ele>34.74</ele>
        <time>2016-07-03T12:23:04Z</time>
      </trkpt>
      <trkpt lat="48.71402" lon="2.49159">
        <ele>34.74</ele>
        <time>2016-07-03T12:23:19Z</time>
      </trkpt>
      <trkpt lat="48.71402" lon="2.49157">
        <ele>34.74</ele>
        <time>2016-07-03T12:23:21Z</time>
      </trkpt>
      <trkpt lat="48.71415" lon="2.49131">
        <ele>34.26</ele>
        <time>2016-07-03T12:23:38Z</time>
      </trkpt>
      <trkpt lat="48.71426" lon="2.49108">
        <ele>35.23</ele>
        <time>2016-07-03T12:23:56Z</time>
      </trkpt>
      <trkpt lat="48.71435" lon="2.49089">
        <ele>35.71</ele>
        <time>2016-07-03T12:24:07Z</time>
      </trkpt>
      <trkpt lat="48.7144" lon="2.49064">
        <ele>34.74</ele>
        <time>2016-07-03T12:24:23Z</time>
      </trkpt>
      <trkpt lat="48.71448" lon="2.49042">
        <ele>34.74</ele>
        <time>2016-07-03T12:24:39Z</time>
      </trkpt>
      <trkpt lat="48.71452" lon="2.49018">
        <ele>35.23</ele>
        <time>2016-07-03T12:24:54Z</time>
      </trkpt>
      <trkpt lat="48.71452" lon="2.48987">
        <ele>34.74</ele>
        <time>2016-07-03T12:25:10Z</time>
      </trkpt>
      <trkpt lat="48.71452" lon="2.48988">
        <ele>34.74</ele>
        <time>2016-07-03T12:25:23Z</time>
      </trkpt>
      <trkpt lat="48.71452" lon="2.48986">
        <ele>34.74</ele>
        <time>2016-07-03T12:25:37Z</time>
      </trkpt>
      <trkpt lat="48.71451" lon="2.48985">
        <ele>34.74</ele>
        <time>2016-07-03T12:25:59Z</time>
      </trkpt>
      <trkpt lat="48.71456" lon="2.48975">
        <ele>35.23</ele>
        <time>2016-07-03T12:26:15Z</time>
      </trkpt>
      <trkpt lat="48.71457" lon="2.48981">
        <ele>35.71</ele>
        <time>2016-07-03T12:26:28Z</time>
      </trkpt>
      <trkpt lat="48.71465" lon="2.48973">
        <ele>37.63</ele>
        <time>2016-07-03T12:26:45Z</time>
      </trkpt>
      <trkpt lat="48.71465" lon="2.4897">
        <ele>37.63</ele>
        <time>2016-07-03T12:26:59Z</time>
      </trkpt>
      <trkpt lat="48.71467" lon="2.48972">
        <ele>37.63</ele>
        <time>2016-07-03T12:27:14Z</time>
      </trkpt>
      <trkpt lat="48.71464" lon="2.4897">
        <ele>38.11</ele>
        <time>2016-07-03T12:27:35Z</time>
      </trkpt>
      <trkpt lat="48.71462" lon="2.48969">
        <ele>37.63</ele>
        <time>2016-07-03T12:27:54Z</time>
      </trkpt>
      <trkpt lat="48.71462" lon="2.48964">
        <ele>37.63</ele>
        <time>2016-07-03T12:28:09Z</time>
      </trkpt>
      <trkpt lat="48.71458" lon="2.48958">
        <ele>38.11</ele>
        <time>2016-07-03T12:28:26Z</time>
      </trkpt>
      <trkpt lat="48.71458" lon="2.48954">
        <ele>38.11</ele>
        <time>2016-07-03T12:28:42Z</time>
      </trkpt>
      <trkpt lat="48.71458" lon="2.48953">
        <ele>38.11</ele>
        <time>2016-07-03T12:28:43Z</time>
      </trkpt>
      <trkpt lat="48.71449" lon="2.48945">
        <ele>38.11</ele>
        <time>2016-07-03T12:28:56Z</time>
      </trkpt>
      <trkpt lat="48.71447" lon="2.48944">
        <ele>38.11</ele>
        <time>2016-07-03T12:28:58Z</time>
      </trkpt>
      <trkpt lat="48.71436" lon="2.48938">
        <ele>37.63</ele>
        <time>2016-07-03T12:29:08Z</time>
      </trkpt>
      <trkpt lat="48.71416" lon="2.48929">
        <ele>38.11</ele>
        <time>2016-07-03T12:29:26Z</time>
      </trkpt>
      <trkpt lat="48.71394" lon="2.4892">
        <ele>36.67</ele>
        <time>2016-07-03T12:29:44Z</time>
      </trkpt>
      <trkpt lat="48.71389" lon="2.48915">
        <ele>36.19</ele>
        <time>2016-07-03T12:29:57Z</time>
      </trkpt>
      <trkpt lat="48.71383" lon="2.48899">
        <ele>37.63</ele>
        <time>2016-07-03T12:30:12Z</time>
      </trkpt>
      <trkpt lat="48.71387" lon="2.48884">
        <ele>37.15</ele>
        <time>2016-07-03T12:30:29Z</time>
      </trkpt>
      <trkpt lat="48.71389" lon="2.48873">
        <ele>37.15</ele>
        <time>2016-07-03T12:30:44Z</time>
      </trkpt>
      <trkpt lat="48.71392" lon="2.48858">
        <ele>38.11</ele>
        <time>2016-07-03T12:31:02Z</time>
      </trkpt>
      <trkpt lat="48.71399" lon="2.48841">
        <ele>37.15</ele>
        <time>2016-07-03T12:31:16Z</time>
      </trkpt>
      <trkpt lat="48.71404" lon="2.48831">
        <ele>37.15</ele>
        <time>2016-07-03T12:31:29Z</time>
      </trkpt>
      <trkpt lat="48.714" lon="2.48835">
        <ele>37.15</ele>
        <time>2016-07-03T12:32:03Z</time>
      </trkpt>
      <trkpt lat="48.71397" lon="2.48843">
        <ele>37.15</ele>
        <time>2016-07-03T12:32:21Z</time>
      </trkpt>
      <trkpt lat="48.71392" lon="2.48846">
        <ele>37.63</ele>
        <time>2016-07-03T12:32:33Z</time>
      </trkpt>
      <trkpt lat="48.7139" lon="2.48848">
        <ele>37.63</ele>
        <time>2016-07-03T12:32:37Z</time>
      </trkpt>
      <trkpt lat="48.71381" lon="2.48839">
        <ele>38.11</ele>
        <time>2016-07-03T12:32:50Z</time>
      </trkpt>
      <trkpt lat="48.71378" lon="2.48832">
        <ele>38.11</ele>
        <time>2016-07-03T12:33:04Z</time>
      </trkpt>
      <trkpt lat="48.71384" lon="2.48817">
        <ele>38.59</ele>
        <time>2016-07-03T12:33:21Z</time>
      </trkpt>
      <trkpt lat="48.71385" lon="2.48806">
        <ele>39.07</ele>
        <time>2016-07-03T12:33:31Z</time>
      </trkpt>
      <trkpt lat="48.71389" lon="2.48789">
        <ele>39.55</ele>
        <time>2016-07-03T12:33:45Z</time>
      </trkpt>
      <trkpt lat="48.71384" lon="2.48791">
        <ele>39.55</ele>
        <time>2016-07-03T12:33:48Z</time>
      </trkpt>
      <trkpt lat="48.71371" lon="2.48808">
        <ele>40.51</ele>
        <time>2016-07-03T12:34:04Z</time>
      </trkpt>
      <trkpt lat="48.71361" lon="2.48828">
        <ele>40.51</ele>
        <time>2016-07-03T12:34:33Z</time>
      </trkpt>
      <trkpt lat="48.71374" lon="2.48832">
        <ele>40.51</ele>
        <time>2016-07-03T12:36:04Z</time>
      </trkpt>
      <trkpt lat="48.71378" lon="2.48831">
        <ele>40.51</ele>
        <time>2016-07-03T12:36:42Z</time>
      </trkpt>
      <trkpt lat="48.71381" lon="2.48833">
        <ele>40.99</ele>
        <time>2016-07-03T12:37:16Z</time>
      </trkpt>
      <trkpt lat="48.71379" lon="2.48822">
        <ele>42.44</ele>
        <time>2016-07-03T12:41:00Z</time>
      </trkpt>
      <trkpt lat="48.7138" lon="2.4881">
        <ele>41.95</ele>
        <time>2016-07-03T12:41:11Z</time>
      </trkpt>
      <trkpt lat="48.7139" lon="2.48782">
        <ele>41.95</ele>
        <time>2016-07-03T12:41:58Z</time>
      </trkpt>
      <trkpt lat="48.71393" lon="2.48763">
        <ele>41.95</ele>
        <time>2016-07-03T12:42:13Z</time>
      </trkpt>
      <trkpt lat="48.71394" lon="2.48751">
        <ele>42.44</ele>
        <time>2016-07-03T12:42:21Z</time>
      </trkpt>
      <trkpt lat="48.71393" lon="2.48737">
        <ele>42.44</ele>
        <time>2016-07-03T12:42:36Z</time>
      </trkpt>
      <trkpt lat="48.71382" lon="2.48719">
        <ele>43.88</ele>
        <time>2016-07-03T12:42:53Z</time>
      </trkpt>
      <trkpt lat="48.71379" lon="2.48706">
        <ele>44.84</ele>
        <time>2016-07-03T12:43:08Z</time>
      </trkpt>
      <trkpt lat="48.71377" lon="2.48708">
        <ele>45.32</ele>
        <time>2016-07-03T12:43:22Z</time>
      </trkpt>
      <trkpt lat="48.71377" lon="2.48699">
        <ele>44.84</ele>
        <time>2016-07-03T12:43:39Z</time>
      </trkpt>
      <trkpt lat="48.71376" lon="2.48687">
        <ele>45.32</ele>
        <time>2016-07-03T12:43:55Z</time>
      </trkpt>
      <trkpt lat="48.71373" lon="2.4867">
        <ele>45.32</ele>
        <time>2016-07-03T12:44:13Z</time>
      </trkpt>
      <trkpt lat="48.71373" lon="2.48659">
        <ele>44.84</ele>
        <time>2016-07-03T12:44:30Z</time>
      </trkpt>
      <trkpt lat="48.71371" lon="2.48642">
        <ele>44.36</ele>
        <time>2016-07-03T12:44:45Z</time>
      </trkpt>
      <trkpt lat="48.71371" lon="2.48625">
        <ele>44.36</ele>
        <time>2016-07-03T12:45:02Z</time>
      </trkpt>
      <trkpt lat="48.71372" lon="2.48618">
        <ele>44.36</ele>
        <time>2016-07-03T12:45:24Z</time>
      </trkpt>
      <trkpt lat="48.71372" lon="2.48618">
        <ele>43.88</ele>
        <time>2016-07-03T12:45:40Z</time>
      </trkpt>
      <trkpt lat="48.71376" lon="2.48607">
        <ele>43.88</ele>
        <time>2016-07-03T12:45:57Z</time>
      </trkpt>
      <trkpt lat="48.71374" lon="2.48604">
        <ele>43.88</ele>
        <time>2016-07-03T12:46:16Z</time>
      </trkpt>
      <trkpt lat="48.71369" lon="2.48617">
        <ele>43.88</ele>
        <time>2016-07-03T12:46:47Z</time>
      </trkpt>
      <trkpt lat="48.71371" lon="2.48609">
        <ele>44.36</ele>
        <time>2016-07-03T12:47:14Z</time>
      </trkpt>
      <trkpt lat="48.71371" lon="2.48607">
        <ele>44.36</ele>
        <time>2016-07-03T12:47:15Z</time>
      </trkpt>
      <trkpt lat="48.71372" lon="2.48583">
        <ele>44.36</ele>
        <time>2016-07-03T12:47:30Z</time>
      </trkpt>
      <trkpt lat="48.71372" lon="2.48573">
        <ele>42.92</ele>
        <time>2016-07-03T12:47:48Z</time>
      </trkpt>
      <trkpt lat="48.71369" lon="2.48554">
        <ele>42.44</ele>
        <time>2016-07-03T12:48:02Z</time>
      </trkpt>
      <trkpt lat="48.71369" lon="2.48538">
        <ele>41.95</ele>
        <time>2016-07-03T12:48:17Z</time>
      </trkpt>
      <trkpt lat="48.71371" lon="2.48526">
        <ele>40.99</ele>
        <time>2016-07-03T12:48:30Z</time>
      </trkpt>
      <trkpt lat="48.71378" lon="2.48508">
        <ele>40.51</ele>
        <time>2016-07-03T12:48:46Z</time>
      </trkpt>
      <trkpt lat="48.71388" lon="2.48491">
        <ele>40.03</ele>
        <time>2016-07-03T12:49:03Z</time>
      </trkpt>
      <trkpt lat="48.71396" lon="2.48481">
        <ele>39.55</ele>
        <time>2016-07-03T12:49:19Z</time>
      </trkpt>
      <trkpt lat="48.71408" lon="2.48473">
        <ele>39.07</ele>
        <time>2016-07-03T12:49:36Z</time>
      </trkpt>
      <trkpt lat="48.71421" lon="2.48469">
        <ele>38.59</ele>
        <time>2016-07-03T12:49:51Z</time>
      </trkpt>
      <trkpt lat="48.71423" lon="2.48472">
        <ele>38.59</ele>
        <time>2016-07-03T12:50:10Z</time>
      </trkpt>
      <trkpt lat="48.71418" lon="2.4846">
        <ele>38.59</ele>
        <time>2016-07-03T12:50:24Z</time>
      </trkpt>
      <trkpt lat="48.71431" lon="2.48462">
        <ele>38.59</ele>
        <time>2016-07-03T12:50:41Z</time>
      </trkpt>
      <trkpt lat="48.7145" lon="2.48469">
        <ele>38.59</ele>
        <time>2016-07-03T12:50:56Z</time>
      </trkpt>
      <trkpt lat="48.7145" lon="2.48463">
        <ele>38.59</ele>
        <time>2016-07-03T12:51:18Z</time>
      </trkpt>
      <trkpt lat="48.71466" lon="2.48455">
        <ele>38.59</ele>
        <time>2016-07-03T12:51:33Z</time>
      </trkpt>
      <trkpt lat="48.71482" lon="2.48453">
        <ele>38.59</ele>
        <time>2016-07-03T12:51:51Z</time>
      </trkpt>
      <trkpt lat="48.71495" lon="2.48462">
        <ele>38.11</ele>
        <time>2016-07-03T12:52:09Z</time>
      </trkpt>
      <trkpt lat="48.7151" lon="2.48468">
        <ele>38.11</ele>
        <time>2016-07-03T12:52:28Z</time>
      </trkpt>
      <trkpt lat="48.7151" lon="2.48467">
        <ele>38.11</ele>
        <time>2016-07-03T12:52:43Z</time>
      </trkpt>
      <trkpt lat="48.71506" lon="2.48448">
        <ele>38.11</ele>
        <time>2016-07-03T12:53:02Z</time>
      </trkpt>
      <trkpt lat="48.7151" lon="2.48439">
        <ele>38.11</ele>
        <time>2016-07-03T12:53:19Z</time>
      </trkpt>
      <trkpt lat="48.71527" lon="2.4844">
        <ele>38.11</ele>
        <time>2016-07-03T12:53:36Z</time>
      </trkpt>
      <trkpt lat="48.7154" lon="2.48431">
        <ele>37.63</ele>
        <time>2016-07-03T12:53:49Z</time>
      </trkpt>
      <trkpt lat="48.71547" lon="2.48418">
        <ele>37.63</ele>
        <time>2016-07-03T12:54:03Z</time>
      </trkpt>
      <trkpt lat="48.71551" lon="2.48403">
        <ele>37.63</ele>
        <time>2016-07-03T12:54:19Z</time>
      </trkpt>
      <trkpt lat="48.71559" lon="2.4838">
        <ele>37.63</ele>
        <time>2016-07-03T12:54:35Z</time>
      </trkpt>
      <trkpt lat="48.71568" lon="2.48354">
        <ele>37.63</ele>
        <time>2016-07-03T12:54:53Z</time>
      </trkpt>
      <trkpt lat="48.71571" lon="2.48327">
        <ele>37.63</ele>
        <time>2016-07-03T12:55:09Z</time>
      </trkpt>
      <trkpt lat="48.71575" lon="2.48322">
        <ele>37.63</ele>
        <time>2016-07-03T12:55:24Z</time>
      </trkpt>
      <trkpt lat="48.71578" lon="2.48305">
        <ele>37.15</ele>
        <time>2016-07-03T12:55:44Z</time>
      </trkpt>
      <trkpt lat="48.71579" lon="2.48273">
        <ele>36.67</ele>
        <time>2016-07-03T12:56:01Z</time>
      </trkpt>
      <trkpt lat="48.71573" lon="2.4825">
        <ele>36.67</ele>
        <time>2016-07-03T12:56:19Z</time>
      </trkpt>
      <trkpt lat="48.71571" lon="2.48228">
        <ele>36.19</ele>
        <time>2016-07-03T12:56:34Z</time>
      </trkpt>
      <trkpt lat="48.71581" lon="2.48209">
        <ele>36.67</ele>
        <time>2016-07-03T12:56:49Z</time>
      </trkpt>
      <trkpt lat="48.71581" lon="2.48191">
        <ele>36.67</ele>
        <time>2016-07-03T12:57:04Z</time>
      </trkpt>
      <trkpt lat="48.71579" lon="2.48165">
        <ele>36.67</ele>
        <time>2016-07-03T12:57:20Z</time>
      </trkpt>
      <trkpt lat="48.7158" lon="2.48152">
        <ele>36.67</ele>
        <time>2016-07-03T12:57:35Z</time>
      </trkpt>
      <trkpt lat="48.71576" lon="2.4813">
        <ele>36.19</ele>
        <time>2016-07-03T12:57:49Z</time>
      </trkpt>
      <trkpt lat="48.71572" lon="2.48108">
        <ele>36.19</ele>
        <time>2016-07-03T12:58:03Z</time>
      </trkpt>
      <trkpt lat="48.71571" lon="2.48085">
        <ele>36.19</ele>
        <time>2016-07-03T12:58:18Z</time>
      </trkpt>
      <trkpt lat="48.7157" lon="2.48063">
        <ele>35.71</ele>
        <time>2016-07-03T12:58:32Z</time>
      </trkpt>
      <trkpt lat="48.71572" lon="2.48037">
        <ele>35.71</ele>
        <time>2016-07-03T12:58:48Z</time>
      </trkpt>
      <trkpt lat="48.7156" lon="2.48021">
        <ele>35.71</ele>
        <time>2016-07-03T12:59:03Z</time>
      </trkpt>
      <trkpt lat="48.71554" lon="2.47995">
        <ele>35.71</ele>
        <time>2016-07-03T12:59:19Z</time>
      </trkpt>
      <trkpt lat="48.71553" lon="2.47973">
        <ele>35.23</ele>
        <time>2016-07-03T12:59:36Z</time>
      </trkpt>
      <trkpt lat="48.71546" lon="2.47961">
        <ele>35.23</ele>
        <time>2016-07-03T12:59:48Z</time>
      </trkpt>
      <trkpt lat="48.71535" lon="2.47936">
        <ele>35.23</ele>
        <time>2016-07-03T13:00:03Z</time>
      </trkpt>
      <trkpt lat="48.71528" lon="2.47907">
        <ele>35.71</ele>
        <time>2016-07-03T13:00:17Z</time>
      </trkpt>
      <trkpt lat="48.71529" lon="2.47895">
        <ele>35.71</ele>
        <time>2016-07-03T13:00:29Z</time>
      </trkpt>
      <trkpt lat="48.71524" lon="2.47882">
        <ele>35.71</ele>
        <time>2016-07-03T13:00:42Z</time>
      </trkpt>
      <trkpt lat="48.7152" lon="2.47874">
        <ele>37.63</ele>
        <time>2016-07-03T13:00:52Z</time>
      </trkpt>
      <trkpt lat="48.71518" lon="2.47872">
        <ele>38.59</ele>
        <time>2016-07-03T13:01:04Z</time>
      </trkpt>
      <trkpt lat="48.7152" lon="2.47863">
        <ele>38.11</ele>
        <time>2016-07-03T13:01:20Z</time>
      </trkpt>
      <trkpt lat="48.71521" lon="2.47856">
        <ele>37.63</ele>
        <time>2016-07-03T13:01:53Z</time>
      </trkpt>
      <trkpt lat="48.71525" lon="2.47858">
        <ele>37.63</ele>
        <time>2016-07-03T13:02:26Z</time>
      </trkpt>
      <trkpt lat="48.7152" lon="2.47862">
        <ele>38.59</ele>
        <time>2016-07-03T13:03:00Z</time>
      </trkpt>
      <trkpt lat="48.71526" lon="2.47869">
        <ele>38.59</ele>
        <time>2016-07-03T13:03:32Z</time>
      </trkpt>
      <trkpt lat="48.71523" lon="2.47872">
        <ele>38.59</ele>
        <time>2016-07-03T13:03:56Z</time>
      </trkpt>
      <trkpt lat="48.71519" lon="2.4787">
        <ele>38.11</ele>
        <time>2016-07-03T13:04:02Z</time>
      </trkpt>
      <trkpt lat="48.71512" lon="2.47852">
        <ele>38.59</ele>
        <time>2016-07-03T13:04:18Z</time>
      </trkpt>
      <trkpt lat="48.71506" lon="2.47837">
        <ele>38.11</ele>
        <time>2016-07-03T13:04:33Z</time>
      </trkpt>
      <trkpt lat="48.71505" lon="2.47834">
        <ele>37.63</ele>
        <time>2016-07-03T13:04:39Z</time>
      </trkpt>
      <trkpt lat="48.71499" lon="2.47811">
        <ele>37.63</ele>
        <time>2016-07-03T13:04:55Z</time>
      </trkpt>
      <trkpt lat="48.71494" lon="2.47789">
        <ele>38.11</ele>
        <time>2016-07-03T13:05:09Z</time>
      </trkpt>
      <trkpt lat="48.7149" lon="2.47766">
        <ele>38.11</ele>
        <time>2016-07-03T13:05:23Z</time>
      </trkpt>
      <trkpt lat="48.7149" lon="2.47738">
        <ele>37.15</ele>
        <time>2016-07-03T13:05:39Z</time>
      </trkpt>
      <trkpt lat="48.71493" lon="2.47725">
        <ele>36.67</ele>
        <time>2016-07-03T13:05:52Z</time>
      </trkpt>
      <trkpt lat="48.7149" lon="2.477">
        <ele>36.19</ele>
        <time>2016-07-03T13:06:08Z</time>
      </trkpt>
      <trkpt lat="48.71492" lon="2.47677">
        <ele>35.71</ele>
        <time>2016-07-03T13:06:22Z</time>
      </trkpt>
      <trkpt lat="48.71493" lon="2.47653">
        <ele>35.23</ele>
        <time>2016-07-03T13:06:38Z</time>
      </trkpt>
      <trkpt lat="48.71492" lon="2.47635">
        <ele>35.71</ele>
        <time>2016-07-03T13:06:52Z</time>
      </trkpt>
      <trkpt lat="48.71487" lon="2.47611">
        <ele>35.71</ele>
        <time>2016-07-03T13:07:07Z</time>
      </trkpt>
      <trkpt lat="48.7148" lon="2.47586">
        <ele>36.19</ele>
        <time>2016-07-03T13:07:23Z</time>
      </trkpt>
      <trkpt lat="48.7147" lon="2.47569">
        <ele>36.67</ele>
        <time>2016-07-03T13:07:40Z</time>
      </trkpt>
      <trkpt lat="48.71463" lon="2.4755">
        <ele>36.67</ele>
        <time>2016-07-03T13:07:54Z</time>
      </trkpt>
      <trkpt lat="48.71457" lon="2.47526">
        <ele>36.19</ele>
        <time>2016-07-03T13:08:09Z</time>
      </trkpt>
      <trkpt lat="48.71446" lon="2.47501">
        <ele>35.23</ele>
        <time>2016-07-03T13:08:24Z</time>
      </trkpt>
      <trkpt lat="48.71445" lon="2.475">
        <ele>35.23</ele>
        <time>2016-07-03T13:08:25Z</time>
      </trkpt>
      <trkpt lat="48.71443" lon="2.47493">
        <ele>34.74</ele>
        <time>2016-07-03T13:08:45Z</time>
      </trkpt>
      <trkpt lat="48.71449" lon="2.47494">
        <ele>35.23</ele>
        <time>2016-07-03T13:09:08Z</time>
      </trkpt>
      <trkpt lat="48.71437" lon="2.4748">
        <ele>34.74</ele>
        <time>2016-07-03T13:09:24Z</time>
      </trkpt>
      <trkpt lat="48.71428" lon="2.4746">
        <ele>34.74</ele>
        <time>2016-07-03T13:09:39Z</time>
      </trkpt>
      <trkpt lat="48.71418" lon="2.47443">
        <ele>34.26</ele>
        <time>2016-07-03T13:09:53Z</time>
      </trkpt>
      <trkpt lat="48.71403" lon="2.47426">
        <ele>34.26</ele>
        <time>2016-07-03T13:10:10Z</time>
      </trkpt>
      <trkpt lat="48.71388" lon="2.47406">
        <ele>33.78</ele>
        <time>2016-07-03T13:10:27Z</time>
      </trkpt>
      <trkpt lat="48.71375" lon="2.47391">
        <ele>34.26</ele>
        <time>2016-07-03T13:10:41Z</time>
      </trkpt>
      <trkpt lat="48.71364" lon="2.47378">
        <ele>34.74</ele>
        <time>2016-07-03T13:10:54Z</time>
      </trkpt>
      <trkpt lat="48.71357" lon="2.47366">
        <ele>34.26</ele>
        <time>2016-07-03T13:11:06Z</time>
      </trkpt>
      <trkpt lat="48.71352" lon="2.47354">
        <ele>33.78</ele>
        <time>2016-07-03T13:11:18Z</time>
      </trkpt>
      <trkpt lat="48.71345" lon="2.47334">
        <ele>33.78</ele>
        <time>2016-07-03T13:11:31Z</time>
      </trkpt>
      <trkpt lat="48.71342" lon="2.47313">
        <ele>33.3</ele>
        <time>2016-07-03T13:11:44Z</time>
      </trkpt>
      <trkpt lat="48.71341" lon="2.47284">
        <ele>33.3</ele>
        <time>2016-07-03T13:12:00Z</time>
      </trkpt>
      <trkpt lat="48.71334" lon="2.47252">
        <ele>32.82</ele>
        <time>2016-07-03T13:12:17Z</time>
      </trkpt>
      <trkpt lat="48.71324" lon="2.47231">
        <ele>32.34</ele>
        <time>2016-07-03T13:12:35Z</time>
      </trkpt>
      <trkpt lat="48.7132" lon="2.47218">
        <ele>32.82</ele>
        <time>2016-07-03T13:12:45Z</time>
      </trkpt>
      <trkpt lat="48.71317" lon="2.47209">
        <ele>32.82</ele>
        <time>2016-07-03T13:12:52Z</time>
      </trkpt>
      <trkpt lat="48.71313" lon="2.47203">
        <ele>31.86</ele>
        <time>2016-07-03T13:12:57Z</time>
      </trkpt>
      <trkpt lat="48.71311" lon="2.47199">
        <ele>32.34</ele>
        <time>2016-07-03T13:13:00Z</time>
      </trkpt>
      <trkpt lat="48.71302" lon="2.4718">
        <ele>31.38</ele>
        <time>2016-07-03T13:13:16Z</time>
      </trkpt>
      <trkpt lat="48.71291" lon="2.47152">
        <ele>31.86</ele>
        <time>2016-07-03T13:13:34Z</time>
      </trkpt>
      <trkpt lat="48.71286" lon="2.47135">
        <ele>31.86</ele>
        <time>2016-07-03T13:13:50Z</time>
      </trkpt>
      <trkpt lat="48.71283" lon="2.47114">
        <ele>31.38</ele>
        <time>2016-07-03T13:14:03Z</time>
      </trkpt>
      <trkpt lat="48.71278" lon="2.47089">
        <ele>31.38</ele>
        <time>2016-07-03T13:14:18Z</time>
      </trkpt>
      <trkpt lat="48.71267" lon="2.47062">
        <ele>31.38</ele>
        <time>2016-07-03T13:14:33Z</time>
      </trkpt>
      <trkpt lat="48.71262" lon="2.4704">
        <ele>30.9</ele>
        <time>2016-07-03T13:14:48Z</time>
      </trkpt>
      <trkpt lat="48.71261" lon="2.47038">
        <ele>31.38</ele>
        <time>2016-07-03T13:14:52Z</time>
      </trkpt>
      <trkpt lat="48.7125" lon="2.47018">
        <ele>31.38</ele>
        <time>2016-07-03T13:15:07Z</time>
      </trkpt>
      <trkpt lat="48.71245" lon="2.47004">
        <ele>31.38</ele>
        <time>2016-07-03T13:15:16Z</time>
      </trkpt>
      <trkpt lat="48.71238" lon="2.46979">
        <ele>31.38</ele>
        <time>2016-07-03T13:15:31Z</time>
      </trkpt>
      <trkpt lat="48.71229" lon="2.46959">
        <ele>32.34</ele>
        <time>2016-07-03T13:15:45Z</time>
      </trkpt>
      <trkpt lat="48.71217" lon="2.46942">
        <ele>32.34</ele>
        <time>2016-07-03T13:16:00Z</time>
      </trkpt>
      <trkpt lat="48.71204" lon="2.46927">
        <ele>32.82</ele>
        <time>2016-07-03T13:16:15Z</time>
      </trkpt>
      <trkpt lat="48.71189" lon="2.4691">
        <ele>31.86</ele>
        <time>2016-07-03T13:16:31Z</time>
      </trkpt>
      <trkpt lat="48.7119" lon="2.46903">
        <ele>32.82</ele>
        <time>2016-07-03T13:16:46Z</time>
      </trkpt>
      <trkpt lat="48.71191" lon="2.46903">
        <ele>32.82</ele>
        <time>2016-07-03T13:16:48Z</time>
      </trkpt>
      <trkpt lat="48.71197" lon="2.46886">
        <ele>32.82</ele>
        <time>2016-07-03T13:17:03Z</time>
      </trkpt>
      <trkpt lat="48.71193" lon="2.46867">
        <ele>32.82</ele>
        <time>2016-07-03T13:17:18Z</time>
      </trkpt>
      <trkpt lat="48.71191" lon="2.46861">
        <ele>33.3</ele>
        <time>2016-07-03T13:17:32Z</time>
      </trkpt>
      <trkpt lat="48.71178" lon="2.46846">
        <ele>32.82</ele>
        <time>2016-07-03T13:17:45Z</time>
      </trkpt>
      <trkpt lat="48.71168" lon="2.46842">
        <ele>33.3</ele>
        <time>2016-07-03T13:17:56Z</time>
      </trkpt>
      <trkpt lat="48.71152" lon="2.46829">
        <ele>33.3</ele>
        <time>2016-07-03T13:18:13Z</time>
      </trkpt>
      <trkpt lat="48.71139" lon="2.46821">
        <ele>32.34</ele>
        <time>2016-07-03T13:18:26Z</time>
      </trkpt>
      <trkpt lat="48.71136" lon="2.46814">
        <ele>32.34</ele>
        <time>2016-07-03T13:18:33Z</time>
      </trkpt>
      <trkpt lat="48.71125" lon="2.46794">
        <ele>32.34</ele>
        <time>2016-07-03T13:18:49Z</time>
      </trkpt>
      <trkpt lat="48.71119" lon="2.46772">
        <ele>32.82</ele>
        <time>2016-07-03T13:19:01Z</time>
      </trkpt>
      <trkpt lat="48.71117" lon="2.46747">
        <ele>32.82</ele>
        <time>2016-07-03T13:19:16Z</time>
      </trkpt>
      <trkpt lat="48.71114" lon="2.46723">
        <ele>32.34</ele>
        <time>2016-07-03T13:19:32Z</time>
      </trkpt>
      <trkpt lat="48.7111" lon="2.467">
        <ele>30.42</ele>
        <time>2016-07-03T13:19:48Z</time>
      </trkpt>
      <trkpt lat="48.7111" lon="2.46683">
        <ele>29.46</ele>
        <time>2016-07-03T13:19:59Z</time>
      </trkpt>
      <trkpt lat="48.7111" lon="2.46672">
        <ele>30.42</ele>
        <time>2016-07-03T13:20:10Z</time>
      </trkpt>
      <trkpt lat="48.71107" lon="2.46647">
        <ele>29.46</ele>
        <time>2016-07-03T13:20:26Z</time>
      </trkpt>
      <trkpt lat="48.71107" lon="2.4662">
        <ele>29.94</ele>
        <time>2016-07-03T13:20:43Z</time>
      </trkpt>
      <trkpt lat="48.71106" lon="2.466">
        <ele>29.94</ele>
        <time>2016-07-03T13:20:58Z</time>
      </trkpt>
      <trkpt lat="48.71105" lon="2.46578">
        <ele>29.94</ele>
        <time>2016-07-03T13:21:14Z</time>
      </trkpt>
      <trkpt lat="48.71102" lon="2.46545">
        <ele>29.94</ele>
        <time>2016-07-03T13:21:30Z</time>
      </trkpt>
      <trkpt lat="48.711" lon="2.4652">
        <ele>29.94</ele>
        <time>2016-07-03T13:21:47Z</time>
      </trkpt>
      <trkpt lat="48.71098" lon="2.46501">
        <ele>30.42</ele>
        <time>2016-07-03T13:22:00Z</time>
      </trkpt>
      <trkpt lat="48.71097" lon="2.46482">
        <ele>30.9</ele>
        <time>2016-07-03T13:22:13Z</time>
      </trkpt>
      <trkpt lat="48.71093" lon="2.46462">
        <ele>30.9</ele>
        <time>2016-07-03T13:22:27Z</time>
      </trkpt>
      <trkpt lat="48.71091" lon="2.46462">
        <ele>30.42</ele>
        <time>2016-07-03T13:22:30Z</time>
      </trkpt>
      <trkpt lat="48.71088" lon="2.46459">
        <ele>30.9</ele>
        <time>2016-07-03T13:22:44Z</time>
      </trkpt>
      <trkpt lat="48.71084" lon="2.46457">
        <ele>30.9</ele>
        <time>2016-07-03T13:23:04Z</time>
      </trkpt>
      <trkpt lat="48.7108" lon="2.46457">
        <ele>30.42</ele>
        <time>2016-07-03T13:23:07Z</time>
      </trkpt>
      <trkpt lat="48.71078" lon="2.46456">
        <ele>30.42</ele>
        <time>2016-07-03T13:23:09Z</time>
      </trkpt>
      <trkpt lat="48.71075" lon="2.46455">
        <ele>30.42</ele>
        <time>2016-07-03T13:23:12Z</time>
      </trkpt>
      <trkpt lat="48.7106" lon="2.46461">
        <ele>30.9</ele>
        <time>2016-07-03T13:23:27Z</time>
      </trkpt>
      <trkpt lat="48.71042" lon="2.4646">
        <ele>30.42</ele>
        <time>2016-07-03T13:23:43Z</time>
      </trkpt>
      <trkpt lat="48.71026" lon="2.46457">
        <ele>30.42</ele>
        <time>2016-07-03T13:23:57Z</time>
      </trkpt>
      <trkpt lat="48.71009" lon="2.46455">
        <ele>30.42</ele>
        <time>2016-07-03T13:24:11Z</time>
      </trkpt>
      <trkpt lat="48.7099" lon="2.46449">
        <ele>29.94</ele>
        <time>2016-07-03T13:24:29Z</time>
      </trkpt>
      <trkpt lat="48.70972" lon="2.46448">
        <ele>30.42</ele>
        <time>2016-07-03T13:24:44Z</time>
      </trkpt>
      <trkpt lat="48.70958" lon="2.46447">
        <ele>30.9</ele>
        <time>2016-07-03T13:24:59Z</time>
      </trkpt>
      <trkpt lat="48.70957" lon="2.46444">
        <ele>30.42</ele>
        <time>2016-07-03T13:25:03Z</time>
      </trkpt>
      <trkpt lat="48.70958" lon="2.4643">
        <ele>30.9</ele>
        <time>2016-07-03T13:25:17Z</time>
      </trkpt>
      <trkpt lat="48.70953" lon="2.46427">
        <ele>30.42</ele>
        <time>2016-07-03T13:25:23Z</time>
      </trkpt>
      <trkpt lat="48.7095" lon="2.46422">
        <ele>30.9</ele>
        <time>2016-07-03T13:25:27Z</time>
      </trkpt>
      <trkpt lat="48.70947" lon="2.46419">
        <ele>31.38</ele>
        <time>2016-07-03T13:25:32Z</time>
      </trkpt>
      <trkpt lat="48.70932" lon="2.46419">
        <ele>30.42</ele>
        <time>2016-07-03T13:25:47Z</time>
      </trkpt>
      <trkpt lat="48.70915" lon="2.4641">
        <ele>30.42</ele>
        <time>2016-07-03T13:26:03Z</time>
      </trkpt>
      <trkpt lat="48.70909" lon="2.46408">
        <ele>29.94</ele>
        <time>2016-07-03T13:26:09Z</time>
      </trkpt>
      <trkpt lat="48.70895" lon="2.464">
        <ele>29.94</ele>
        <time>2016-07-03T13:26:23Z</time>
      </trkpt>
      <trkpt lat="48.7089" lon="2.46396">
        <ele>29.94</ele>
        <time>2016-07-03T13:26:29Z</time>
      </trkpt>
      <trkpt lat="48.70877" lon="2.46387">
        <ele>30.42</ele>
        <time>2016-07-03T13:26:44Z</time>
      </trkpt>
      <trkpt lat="48.7087" lon="2.46381">
        <ele>30.42</ele>
        <time>2016-07-03T13:26:53Z</time>
      </trkpt>
      <trkpt lat="48.7085" lon="2.46367">
        <ele>31.38</ele>
        <time>2016-07-03T13:27:09Z</time>
      </trkpt>
      <trkpt lat="48.70833" lon="2.46355">
        <ele>31.86</ele>
        <time>2016-07-03T13:27:25Z</time>
      </trkpt>
      <trkpt lat="48.70821" lon="2.46344">
        <ele>32.82</ele>
        <time>2016-07-03T13:27:38Z</time>
      </trkpt>
      <trkpt lat="48.70815" lon="2.46341">
        <ele>32.82</ele>
        <time>2016-07-03T13:27:52Z</time>
      </trkpt>
      <trkpt lat="48.70816" lon="2.46341">
        <ele>32.82</ele>
        <time>2016-07-03T13:27:53Z</time>
      </trkpt>
    </trkseg>
  </trk>
</gpx>